<gpx creator="Cyclotour.ca" version="1.1" xmlns:gpsies="http://www.gpsies.com/GPX/1/0" xmlns:xsi="http://www.w3.org/2001/XMLSchema-instance" xmlns="http://www.topografix.com/GPX/1/1" xsi:schemaLocation="http://www.topografix.com/GPX/1/1 http://www.topografix.com/GPX/1/1/gpx.xsd http://www.gpsies.com/GPX/1/0 http://www.gpsies.com/gpsies.xsd">
<trk>
<name>Parc Masse / St-Luc-de-Vincennes / Ste-Geneviève</name>
<trkseg>
<trkpt lat="46.389710000" lon="-72.580430000">
<ele>0</ele>
<time>2026-09-04T06:34:01Z</time>
</trkpt>
<trkpt lat="46.390150000" lon="-72.581070000">
<ele>0</ele>
<time>2026-09-04T06:34:02Z</time>
</trkpt>
<trkpt lat="46.390040000" lon="-72.581210000">
<ele>0</ele>
<time>2026-09-04T06:34:03Z</time>
</trkpt>
<trkpt lat="46.389940000" lon="-72.581350000">
<ele>0</ele>
<time>2026-09-04T06:34:04Z</time>
</trkpt>
<trkpt lat="46.389800000" lon="-72.581590000">
<ele>0</ele>
<time>2026-09-04T06:34:05Z</time>
</trkpt>
<trkpt lat="46.389800000" lon="-72.581590000">
<ele>0</ele>
<time>2026-09-04T06:34:06Z</time>
</trkpt>
<trkpt lat="46.389630000" lon="-72.581950000">
<ele>0</ele>
<time>2026-09-04T06:34:07Z</time>
</trkpt>
<trkpt lat="46.389500000" lon="-72.582280000">
<ele>0</ele>
<time>2026-09-04T06:34:08Z</time>
</trkpt>
<trkpt lat="46.388820000" lon="-72.584050000">
<ele>0</ele>
<time>2026-09-04T06:34:09Z</time>
</trkpt>
<trkpt lat="46.388560000" lon="-72.584860000">
<ele>0</ele>
<time>2026-09-04T06:34:10Z</time>
</trkpt>
<trkpt lat="46.388420000" lon="-72.585330000">
<ele>0</ele>
<time>2026-09-04T06:34:11Z</time>
</trkpt>
<trkpt lat="46.388170000" lon="-72.586290000">
<ele>0</ele>
<time>2026-09-04T06:34:12Z</time>
</trkpt>
<trkpt lat="46.387710000" lon="-72.588270000">
<ele>0</ele>
<time>2026-09-04T06:34:13Z</time>
</trkpt>
<trkpt lat="46.387600000" lon="-72.588850000">
<ele>0</ele>
<time>2026-09-04T06:34:14Z</time>
</trkpt>
<trkpt lat="46.387570000" lon="-72.589180000">
<ele>0</ele>
<time>2026-09-04T06:34:15Z</time>
</trkpt>
<trkpt lat="46.387580000" lon="-72.589510000">
<ele>0</ele>
<time>2026-09-04T06:34:16Z</time>
</trkpt>
<trkpt lat="46.387620000" lon="-72.589780000">
<ele>0</ele>
<time>2026-09-04T06:34:17Z</time>
</trkpt>
<trkpt lat="46.387710000" lon="-72.590130000">
<ele>0</ele>
<time>2026-09-04T06:34:18Z</time>
</trkpt>
<trkpt lat="46.387850000" lon="-72.590490000">
<ele>0</ele>
<time>2026-09-04T06:34:19Z</time>
</trkpt>
<trkpt lat="46.388180000" lon="-72.591080000">
<ele>0</ele>
<time>2026-09-04T06:34:20Z</time>
</trkpt>
<trkpt lat="46.390690000" lon="-72.594860000">
<ele>0</ele>
<time>2026-09-04T06:34:21Z</time>
</trkpt>
<trkpt lat="46.392720000" lon="-72.597910000">
<ele>0</ele>
<time>2026-09-04T06:34:22Z</time>
</trkpt>
<trkpt lat="46.393650000" lon="-72.599330000">
<ele>0</ele>
<time>2026-09-04T06:34:23Z</time>
</trkpt>
<trkpt lat="46.393980000" lon="-72.599810000">
<ele>0</ele>
<time>2026-09-04T06:34:24Z</time>
</trkpt>
<trkpt lat="46.394280000" lon="-72.600160000">
<ele>0</ele>
<time>2026-09-04T06:34:25Z</time>
</trkpt>
<trkpt lat="46.394590000" lon="-72.600410000">
<ele>0</ele>
<time>2026-09-04T06:34:26Z</time>
</trkpt>
<trkpt lat="46.395030000" lon="-72.600650000">
<ele>0</ele>
<time>2026-09-04T06:34:27Z</time>
</trkpt>
<trkpt lat="46.395470000" lon="-72.600790000">
<ele>0</ele>
<time>2026-09-04T06:34:28Z</time>
</trkpt>
<trkpt lat="46.395790000" lon="-72.600830000">
<ele>0</ele>
<time>2026-09-04T06:34:29Z</time>
</trkpt>
<trkpt lat="46.396370000" lon="-72.600820000">
<ele>0</ele>
<time>2026-09-04T06:34:30Z</time>
</trkpt>
<trkpt lat="46.397490000" lon="-72.600800000">
<ele>0</ele>
<time>2026-09-04T06:34:31Z</time>
</trkpt>
<trkpt lat="46.397620000" lon="-72.600840000">
<ele>0</ele>
<time>2026-09-04T06:34:32Z</time>
</trkpt>
<trkpt lat="46.397770000" lon="-72.600940000">
<ele>0</ele>
<time>2026-09-04T06:34:33Z</time>
</trkpt>
<trkpt lat="46.397890000" lon="-72.601080000">
<ele>0</ele>
<time>2026-09-04T06:34:34Z</time>
</trkpt>
<trkpt lat="46.398060000" lon="-72.601340000">
<ele>0</ele>
<time>2026-09-04T06:34:35Z</time>
</trkpt>
<trkpt lat="46.398430000" lon="-72.602290000">
<ele>0</ele>
<time>2026-09-04T06:34:36Z</time>
</trkpt>
<trkpt lat="46.398470000" lon="-72.602440000">
<ele>0</ele>
<time>2026-09-04T06:34:37Z</time>
</trkpt>
<trkpt lat="46.398510000" lon="-72.602590000">
<ele>0</ele>
<time>2026-09-04T06:34:38Z</time>
</trkpt>
<trkpt lat="46.398790000" lon="-72.604740000">
<ele>0</ele>
<time>2026-09-04T06:34:39Z</time>
</trkpt>
<trkpt lat="46.399060000" lon="-72.607150000">
<ele>0</ele>
<time>2026-09-04T06:34:40Z</time>
</trkpt>
<trkpt lat="46.399110000" lon="-72.607850000">
<ele>0</ele>
<time>2026-09-04T06:34:41Z</time>
</trkpt>
<trkpt lat="46.399160000" lon="-72.609090000">
<ele>0</ele>
<time>2026-09-04T06:34:42Z</time>
</trkpt>
<trkpt lat="46.399160000" lon="-72.609410000">
<ele>0</ele>
<time>2026-09-04T06:34:43Z</time>
</trkpt>
<trkpt lat="46.399160000" lon="-72.611760000">
<ele>0</ele>
<time>2026-09-04T06:34:44Z</time>
</trkpt>
<trkpt lat="46.399170000" lon="-72.614510000">
<ele>0</ele>
<time>2026-09-04T06:34:45Z</time>
</trkpt>
<trkpt lat="46.399970000" lon="-72.614480000">
<ele>0</ele>
<time>2026-09-04T06:34:46Z</time>
</trkpt>
<trkpt lat="46.399970000" lon="-72.614480000">
<ele>0</ele>
<time>2026-09-04T06:34:47Z</time>
</trkpt>
<trkpt lat="46.400940000" lon="-72.614440000">
<ele>0</ele>
<time>2026-09-04T06:34:48Z</time>
</trkpt>
<trkpt lat="46.402510000" lon="-72.614380000">
<ele>0</ele>
<time>2026-09-04T06:34:49Z</time>
</trkpt>
<trkpt lat="46.402600000" lon="-72.614350000">
<ele>0</ele>
<time>2026-09-04T06:34:50Z</time>
</trkpt>
<trkpt lat="46.402730000" lon="-72.614290000">
<ele>0</ele>
<time>2026-09-04T06:34:51Z</time>
</trkpt>
<trkpt lat="46.402790000" lon="-72.614250000">
<ele>0</ele>
<time>2026-09-04T06:34:52Z</time>
</trkpt>
<trkpt lat="46.402940000" lon="-72.614150000">
<ele>0</ele>
<time>2026-09-04T06:34:53Z</time>
</trkpt>
<trkpt lat="46.403500000" lon="-72.613620000">
<ele>0</ele>
<time>2026-09-04T06:34:54Z</time>
</trkpt>
<trkpt lat="46.404020000" lon="-72.613150000">
<ele>0</ele>
<time>2026-09-04T06:34:55Z</time>
</trkpt>
<trkpt lat="46.404380000" lon="-72.612970000">
<ele>0</ele>
<time>2026-09-04T06:34:56Z</time>
</trkpt>
<trkpt lat="46.405230000" lon="-72.612720000">
<ele>0</ele>
<time>2026-09-04T06:34:57Z</time>
</trkpt>
<trkpt lat="46.405490000" lon="-72.612640000">
<ele>0</ele>
<time>2026-09-04T06:34:58Z</time>
</trkpt>
<trkpt lat="46.405590000" lon="-72.612640000">
<ele>0</ele>
<time>2026-09-04T06:34:59Z</time>
</trkpt>
<trkpt lat="46.405930000" lon="-72.612700000">
<ele>0</ele>
<time>2026-09-04T06:35:00Z</time>
</trkpt>
<trkpt lat="46.405970000" lon="-72.612700000">
<ele>0</ele>
<time>2026-09-04T06:35:01Z</time>
</trkpt>
<trkpt lat="46.406360000" lon="-72.612730000">
<ele>0</ele>
<time>2026-09-04T06:35:02Z</time>
</trkpt>
<trkpt lat="46.408900000" lon="-72.612630000">
<ele>0</ele>
<time>2026-09-04T06:35:03Z</time>
</trkpt>
<trkpt lat="46.410840000" lon="-72.612560000">
<ele>0</ele>
<time>2026-09-04T06:35:04Z</time>
</trkpt>
<trkpt lat="46.411200000" lon="-72.612510000">
<ele>0</ele>
<time>2026-09-04T06:35:05Z</time>
</trkpt>
<trkpt lat="46.411290000" lon="-72.612500000">
<ele>0</ele>
<time>2026-09-04T06:35:06Z</time>
</trkpt>
<trkpt lat="46.411720000" lon="-72.612350000">
<ele>0</ele>
<time>2026-09-04T06:35:07Z</time>
</trkpt>
<trkpt lat="46.411980000" lon="-72.612180000">
<ele>0</ele>
<time>2026-09-04T06:35:08Z</time>
</trkpt>
<trkpt lat="46.412070000" lon="-72.612090000">
<ele>0</ele>
<time>2026-09-04T06:35:09Z</time>
</trkpt>
<trkpt lat="46.413080000" lon="-72.610670000">
<ele>0</ele>
<time>2026-09-04T06:35:10Z</time>
</trkpt>
<trkpt lat="46.416920000" lon="-72.605010000">
<ele>0</ele>
<time>2026-09-04T06:35:11Z</time>
</trkpt>
<trkpt lat="46.417750000" lon="-72.603810000">
<ele>0</ele>
<time>2026-09-04T06:35:12Z</time>
</trkpt>
<trkpt lat="46.419640000" lon="-72.601140000">
<ele>0</ele>
<time>2026-09-04T06:35:13Z</time>
</trkpt>
<trkpt lat="46.419890000" lon="-72.600780000">
<ele>0</ele>
<time>2026-09-04T06:35:14Z</time>
</trkpt>
<trkpt lat="46.420100000" lon="-72.601060000">
<ele>0</ele>
<time>2026-09-04T06:35:15Z</time>
</trkpt>
<trkpt lat="46.420100000" lon="-72.601060000">
<ele>0</ele>
<time>2026-09-04T06:35:16Z</time>
</trkpt>
<trkpt lat="46.420430000" lon="-72.601490000">
<ele>0</ele>
<time>2026-09-04T06:35:17Z</time>
</trkpt>
<trkpt lat="46.420620000" lon="-72.601190000">
<ele>0</ele>
<time>2026-09-04T06:35:18Z</time>
</trkpt>
<trkpt lat="46.420620000" lon="-72.601190000">
<ele>0</ele>
<time>2026-09-04T06:35:19Z</time>
</trkpt>
<trkpt lat="46.420890000" lon="-72.600780000">
<ele>0</ele>
<time>2026-09-04T06:35:20Z</time>
</trkpt>
<trkpt lat="46.421080000" lon="-72.601020000">
<ele>0</ele>
<time>2026-09-04T06:35:21Z</time>
</trkpt>
<trkpt lat="46.421080000" lon="-72.601020000">
<ele>0</ele>
<time>2026-09-04T06:35:22Z</time>
</trkpt>
<trkpt lat="46.421620000" lon="-72.601720000">
<ele>0</ele>
<time>2026-09-04T06:35:23Z</time>
</trkpt>
<trkpt lat="46.422400000" lon="-72.602860000">
<ele>0</ele>
<time>2026-09-04T06:35:24Z</time>
</trkpt>
<trkpt lat="46.422890000" lon="-72.603470000">
<ele>0</ele>
<time>2026-09-04T06:35:25Z</time>
</trkpt>
<trkpt lat="46.423920000" lon="-72.604770000">
<ele>0</ele>
<time>2026-09-04T06:35:26Z</time>
</trkpt>
<trkpt lat="46.424250000" lon="-72.605060000">
<ele>0</ele>
<time>2026-09-04T06:35:27Z</time>
</trkpt>
<trkpt lat="46.424470000" lon="-72.605170000">
<ele>0</ele>
<time>2026-09-04T06:35:28Z</time>
</trkpt>
<trkpt lat="46.424730000" lon="-72.604990000">
<ele>0</ele>
<time>2026-09-04T06:35:29Z</time>
</trkpt>
<trkpt lat="46.424730000" lon="-72.604990000">
<ele>0</ele>
<time>2026-09-04T06:35:30Z</time>
</trkpt>
<trkpt lat="46.424820000" lon="-72.604920000">
<ele>0</ele>
<time>2026-09-04T06:35:31Z</time>
</trkpt>
<trkpt lat="46.425030000" lon="-72.604810000">
<ele>0</ele>
<time>2026-09-04T06:35:32Z</time>
</trkpt>
<trkpt lat="46.425340000" lon="-72.604770000">
<ele>0</ele>
<time>2026-09-04T06:35:33Z</time>
</trkpt>
<trkpt lat="46.425430000" lon="-72.604760000">
<ele>0</ele>
<time>2026-09-04T06:35:34Z</time>
</trkpt>
<trkpt lat="46.425510000" lon="-72.604810000">
<ele>0</ele>
<time>2026-09-04T06:35:35Z</time>
</trkpt>
<trkpt lat="46.425730000" lon="-72.604860000">
<ele>0</ele>
<time>2026-09-04T06:35:36Z</time>
</trkpt>
<trkpt lat="46.425900000" lon="-72.604850000">
<ele>0</ele>
<time>2026-09-04T06:35:37Z</time>
</trkpt>
<trkpt lat="46.426040000" lon="-72.604780000">
<ele>0</ele>
<time>2026-09-04T06:35:38Z</time>
</trkpt>
<trkpt lat="46.426120000" lon="-72.604730000">
<ele>0</ele>
<time>2026-09-04T06:35:39Z</time>
</trkpt>
<trkpt lat="46.426250000" lon="-72.604760000">
<ele>0</ele>
<time>2026-09-04T06:35:40Z</time>
</trkpt>
<trkpt lat="46.427270000" lon="-72.606210000">
<ele>0</ele>
<time>2026-09-04T06:35:41Z</time>
</trkpt>
<trkpt lat="46.427510000" lon="-72.606460000">
<ele>0</ele>
<time>2026-09-04T06:35:42Z</time>
</trkpt>
<trkpt lat="46.427620000" lon="-72.606630000">
<ele>0</ele>
<time>2026-09-04T06:35:43Z</time>
</trkpt>
<trkpt lat="46.427760000" lon="-72.606840000">
<ele>0</ele>
<time>2026-09-04T06:35:44Z</time>
</trkpt>
<trkpt lat="46.427870000" lon="-72.607040000">
<ele>0</ele>
<time>2026-09-04T06:35:45Z</time>
</trkpt>
<trkpt lat="46.428020000" lon="-72.607220000">
<ele>0</ele>
<time>2026-09-04T06:35:46Z</time>
</trkpt>
<trkpt lat="46.428120000" lon="-72.607270000">
<ele>0</ele>
<time>2026-09-04T06:35:47Z</time>
</trkpt>
<trkpt lat="46.428220000" lon="-72.607360000">
<ele>0</ele>
<time>2026-09-04T06:35:48Z</time>
</trkpt>
<trkpt lat="46.428250000" lon="-72.607570000">
<ele>0</ele>
<time>2026-09-04T06:35:49Z</time>
</trkpt>
<trkpt lat="46.428340000" lon="-72.607790000">
<ele>0</ele>
<time>2026-09-04T06:35:50Z</time>
</trkpt>
<trkpt lat="46.428440000" lon="-72.607860000">
<ele>0</ele>
<time>2026-09-04T06:35:51Z</time>
</trkpt>
<trkpt lat="46.428630000" lon="-72.607920000">
<ele>0</ele>
<time>2026-09-04T06:35:52Z</time>
</trkpt>
<trkpt lat="46.428880000" lon="-72.607980000">
<ele>0</ele>
<time>2026-09-04T06:35:53Z</time>
</trkpt>
<trkpt lat="46.429320000" lon="-72.608390000">
<ele>0</ele>
<time>2026-09-04T06:35:54Z</time>
</trkpt>
<trkpt lat="46.429540000" lon="-72.608620000">
<ele>0</ele>
<time>2026-09-04T06:35:55Z</time>
</trkpt>
<trkpt lat="46.429670000" lon="-72.608720000">
<ele>0</ele>
<time>2026-09-04T06:35:56Z</time>
</trkpt>
<trkpt lat="46.429730000" lon="-72.608750000">
<ele>0</ele>
<time>2026-09-04T06:35:57Z</time>
</trkpt>
<trkpt lat="46.429730000" lon="-72.608750000">
<ele>0</ele>
<time>2026-09-04T06:35:58Z</time>
</trkpt>
<trkpt lat="46.429930000" lon="-72.608840000">
<ele>0</ele>
<time>2026-09-04T06:35:59Z</time>
</trkpt>
<trkpt lat="46.430120000" lon="-72.608980000">
<ele>0</ele>
<time>2026-09-04T06:36:00Z</time>
</trkpt>
<trkpt lat="46.430530000" lon="-72.609510000">
<ele>0</ele>
<time>2026-09-04T06:36:01Z</time>
</trkpt>
<trkpt lat="46.432300000" lon="-72.611980000">
<ele>0</ele>
<time>2026-09-04T06:36:02Z</time>
</trkpt>
<trkpt lat="46.435770000" lon="-72.616910000">
<ele>0</ele>
<time>2026-09-04T06:36:03Z</time>
</trkpt>
<trkpt lat="46.436300000" lon="-72.617670000">
<ele>0</ele>
<time>2026-09-04T06:36:04Z</time>
</trkpt>
<trkpt lat="46.436390000" lon="-72.617860000">
<ele>0</ele>
<time>2026-09-04T06:36:05Z</time>
</trkpt>
<trkpt lat="46.436450000" lon="-72.618010000">
<ele>0</ele>
<time>2026-09-04T06:36:06Z</time>
</trkpt>
<trkpt lat="46.436490000" lon="-72.618230000">
<ele>0</ele>
<time>2026-09-04T06:36:07Z</time>
</trkpt>
<trkpt lat="46.436480000" lon="-72.618740000">
<ele>0</ele>
<time>2026-09-04T06:36:08Z</time>
</trkpt>
<trkpt lat="46.436440000" lon="-72.619320000">
<ele>0</ele>
<time>2026-09-04T06:36:09Z</time>
</trkpt>
<trkpt lat="46.436480000" lon="-72.619550000">
<ele>0</ele>
<time>2026-09-04T06:36:10Z</time>
</trkpt>
<trkpt lat="46.437280000" lon="-72.620720000">
<ele>0</ele>
<time>2026-09-04T06:36:11Z</time>
</trkpt>
<trkpt lat="46.437280000" lon="-72.620860000">
<ele>0</ele>
<time>2026-09-04T06:36:12Z</time>
</trkpt>
<trkpt lat="46.437240000" lon="-72.620990000">
<ele>0</ele>
<time>2026-09-04T06:36:13Z</time>
</trkpt>
<trkpt lat="46.437180000" lon="-72.621110000">
<ele>0</ele>
<time>2026-09-04T06:36:14Z</time>
</trkpt>
<trkpt lat="46.437180000" lon="-72.621110000">
<ele>0</ele>
<time>2026-09-04T06:36:15Z</time>
</trkpt>
<trkpt lat="46.437090000" lon="-72.621260000">
<ele>0</ele>
<time>2026-09-04T06:36:16Z</time>
</trkpt>
<trkpt lat="46.436960000" lon="-72.621420000">
<ele>0</ele>
<time>2026-09-04T06:36:17Z</time>
</trkpt>
<trkpt lat="46.436880000" lon="-72.621440000">
<ele>0</ele>
<time>2026-09-04T06:36:18Z</time>
</trkpt>
<trkpt lat="46.436700000" lon="-72.621380000">
<ele>0</ele>
<time>2026-09-04T06:36:19Z</time>
</trkpt>
<trkpt lat="46.436630000" lon="-72.621310000">
<ele>0</ele>
<time>2026-09-04T06:36:20Z</time>
</trkpt>
<trkpt lat="46.436230000" lon="-72.620770000">
<ele>0</ele>
<time>2026-09-04T06:36:21Z</time>
</trkpt>
<trkpt lat="46.436010000" lon="-72.620470000">
<ele>0</ele>
<time>2026-09-04T06:36:22Z</time>
</trkpt>
<trkpt lat="46.435950000" lon="-72.620410000">
<ele>0</ele>
<time>2026-09-04T06:36:23Z</time>
</trkpt>
<trkpt lat="46.435900000" lon="-72.620410000">
<ele>0</ele>
<time>2026-09-04T06:36:24Z</time>
</trkpt>
<trkpt lat="46.435750000" lon="-72.620490000">
<ele>0</ele>
<time>2026-09-04T06:36:25Z</time>
</trkpt>
<trkpt lat="46.435650000" lon="-72.620660000">
<ele>0</ele>
<time>2026-09-04T06:36:26Z</time>
</trkpt>
<trkpt lat="46.435550000" lon="-72.620820000">
<ele>0</ele>
<time>2026-09-04T06:36:27Z</time>
</trkpt>
<trkpt lat="46.435270000" lon="-72.621090000">
<ele>0</ele>
<time>2026-09-04T06:36:28Z</time>
</trkpt>
<trkpt lat="46.434980000" lon="-72.621340000">
<ele>0</ele>
<time>2026-09-04T06:36:29Z</time>
</trkpt>
<trkpt lat="46.434770000" lon="-72.621660000">
<ele>0</ele>
<time>2026-09-04T06:36:30Z</time>
</trkpt>
<trkpt lat="46.434670000" lon="-72.621830000">
<ele>0</ele>
<time>2026-09-04T06:36:31Z</time>
</trkpt>
<trkpt lat="46.434500000" lon="-72.622030000">
<ele>0</ele>
<time>2026-09-04T06:36:32Z</time>
</trkpt>
<trkpt lat="46.434370000" lon="-72.622120000">
<ele>0</ele>
<time>2026-09-04T06:36:33Z</time>
</trkpt>
<trkpt lat="46.434150000" lon="-72.622320000">
<ele>0</ele>
<time>2026-09-04T06:36:34Z</time>
</trkpt>
<trkpt lat="46.434040000" lon="-72.622500000">
<ele>0</ele>
<time>2026-09-04T06:36:35Z</time>
</trkpt>
<trkpt lat="46.433910000" lon="-72.622830000">
<ele>0</ele>
<time>2026-09-04T06:36:36Z</time>
</trkpt>
<trkpt lat="46.433850000" lon="-72.622960000">
<ele>0</ele>
<time>2026-09-04T06:36:37Z</time>
</trkpt>
<trkpt lat="46.433710000" lon="-72.623120000">
<ele>0</ele>
<time>2026-09-04T06:36:38Z</time>
</trkpt>
<trkpt lat="46.433480000" lon="-72.623300000">
<ele>0</ele>
<time>2026-09-04T06:36:39Z</time>
</trkpt>
<trkpt lat="46.433400000" lon="-72.623390000">
<ele>0</ele>
<time>2026-09-04T06:36:40Z</time>
</trkpt>
<trkpt lat="46.433300000" lon="-72.623600000">
<ele>0</ele>
<time>2026-09-04T06:36:41Z</time>
</trkpt>
<trkpt lat="46.433120000" lon="-72.624050000">
<ele>0</ele>
<time>2026-09-04T06:36:42Z</time>
</trkpt>
<trkpt lat="46.432560000" lon="-72.625480000">
<ele>0</ele>
<time>2026-09-04T06:36:43Z</time>
</trkpt>
<trkpt lat="46.432470000" lon="-72.625750000">
<ele>0</ele>
<time>2026-09-04T06:36:44Z</time>
</trkpt>
<trkpt lat="46.432480000" lon="-72.625900000">
<ele>0</ele>
<time>2026-09-04T06:36:45Z</time>
</trkpt>
<trkpt lat="46.432580000" lon="-72.626330000">
<ele>0</ele>
<time>2026-09-04T06:36:46Z</time>
</trkpt>
<trkpt lat="46.432630000" lon="-72.626650000">
<ele>0</ele>
<time>2026-09-04T06:36:47Z</time>
</trkpt>
<trkpt lat="46.432770000" lon="-72.626850000">
<ele>0</ele>
<time>2026-09-04T06:36:48Z</time>
</trkpt>
<trkpt lat="46.432810000" lon="-72.626970000">
<ele>0</ele>
<time>2026-09-04T06:36:49Z</time>
</trkpt>
<trkpt lat="46.432800000" lon="-72.627050000">
<ele>0</ele>
<time>2026-09-04T06:36:50Z</time>
</trkpt>
<trkpt lat="46.432740000" lon="-72.627300000">
<ele>0</ele>
<time>2026-09-04T06:36:51Z</time>
</trkpt>
<trkpt lat="46.432740000" lon="-72.627390000">
<ele>0</ele>
<time>2026-09-04T06:36:52Z</time>
</trkpt>
<trkpt lat="46.432820000" lon="-72.627530000">
<ele>0</ele>
<time>2026-09-04T06:36:53Z</time>
</trkpt>
<trkpt lat="46.433010000" lon="-72.627280000">
<ele>0</ele>
<time>2026-09-04T06:36:54Z</time>
</trkpt>
<trkpt lat="46.433010000" lon="-72.627280000">
<ele>0</ele>
<time>2026-09-04T06:36:55Z</time>
</trkpt>
<trkpt lat="46.434860000" lon="-72.624680000">
<ele>0</ele>
<time>2026-09-04T06:36:56Z</time>
</trkpt>
<trkpt lat="46.435450000" lon="-72.623750000">
<ele>0</ele>
<time>2026-09-04T06:36:57Z</time>
</trkpt>
<trkpt lat="46.435830000" lon="-72.623210000">
<ele>0</ele>
<time>2026-09-04T06:36:58Z</time>
</trkpt>
<trkpt lat="46.436090000" lon="-72.622840000">
<ele>0</ele>
<time>2026-09-04T06:36:59Z</time>
</trkpt>
<trkpt lat="46.436430000" lon="-72.622360000">
<ele>0</ele>
<time>2026-09-04T06:37:00Z</time>
</trkpt>
<trkpt lat="46.436990000" lon="-72.621560000">
<ele>0</ele>
<time>2026-09-04T06:37:01Z</time>
</trkpt>
<trkpt lat="46.437110000" lon="-72.621390000">
<ele>0</ele>
<time>2026-09-04T06:37:02Z</time>
</trkpt>
<trkpt lat="46.437110000" lon="-72.621390000">
<ele>0</ele>
<time>2026-09-04T06:37:03Z</time>
</trkpt>
<trkpt lat="46.437430000" lon="-72.620940000">
<ele>0</ele>
<time>2026-09-04T06:37:04Z</time>
</trkpt>
<trkpt lat="46.438020000" lon="-72.620100000">
<ele>0</ele>
<time>2026-09-04T06:37:05Z</time>
</trkpt>
<trkpt lat="46.438540000" lon="-72.619280000">
<ele>0</ele>
<time>2026-09-04T06:37:06Z</time>
</trkpt>
<trkpt lat="46.438710000" lon="-72.619050000">
<ele>0</ele>
<time>2026-09-04T06:37:07Z</time>
</trkpt>
<trkpt lat="46.438710000" lon="-72.619050000">
<ele>0</ele>
<time>2026-09-04T06:37:08Z</time>
</trkpt>
<trkpt lat="46.439970000" lon="-72.617310000">
<ele>0</ele>
<time>2026-09-04T06:37:09Z</time>
</trkpt>
<trkpt lat="46.440610000" lon="-72.616390000">
<ele>0</ele>
<time>2026-09-04T06:37:10Z</time>
</trkpt>
<trkpt lat="46.442380000" lon="-72.613760000">
<ele>0</ele>
<time>2026-09-04T06:37:11Z</time>
</trkpt>
<trkpt lat="46.443820000" lon="-72.611670000">
<ele>0</ele>
<time>2026-09-04T06:37:12Z</time>
</trkpt>
<trkpt lat="46.447340000" lon="-72.606570000">
<ele>0</ele>
<time>2026-09-04T06:37:13Z</time>
</trkpt>
<trkpt lat="46.453730000" lon="-72.597260000">
<ele>0</ele>
<time>2026-09-04T06:37:14Z</time>
</trkpt>
<trkpt lat="46.460540000" lon="-72.587350000">
<ele>0</ele>
<time>2026-09-04T06:37:15Z</time>
</trkpt>
<trkpt lat="46.462640000" lon="-72.584310000">
<ele>0</ele>
<time>2026-09-04T06:37:16Z</time>
</trkpt>
<trkpt lat="46.466540000" lon="-72.578700000">
<ele>0</ele>
<time>2026-09-04T06:37:17Z</time>
</trkpt>
<trkpt lat="46.468390000" lon="-72.576040000">
<ele>0</ele>
<time>2026-09-04T06:37:18Z</time>
</trkpt>
<trkpt lat="46.475550000" lon="-72.565750000">
<ele>0</ele>
<time>2026-09-04T06:37:19Z</time>
</trkpt>
<trkpt lat="46.476760000" lon="-72.563990000">
<ele>0</ele>
<time>2026-09-04T06:37:20Z</time>
</trkpt>
<trkpt lat="46.477570000" lon="-72.562780000">
<ele>0</ele>
<time>2026-09-04T06:37:21Z</time>
</trkpt>
<trkpt lat="46.479310000" lon="-72.560190000">
<ele>0</ele>
<time>2026-09-04T06:37:22Z</time>
</trkpt>
<trkpt lat="46.481140000" lon="-72.557630000">
<ele>0</ele>
<time>2026-09-04T06:37:23Z</time>
</trkpt>
<trkpt lat="46.483590000" lon="-72.554210000">
<ele>0</ele>
<time>2026-09-04T06:37:24Z</time>
</trkpt>
<trkpt lat="46.483750000" lon="-72.554450000">
<ele>0</ele>
<time>2026-09-04T06:37:25Z</time>
</trkpt>
<trkpt lat="46.483750000" lon="-72.554450000">
<ele>0</ele>
<time>2026-09-04T06:37:26Z</time>
</trkpt>
<trkpt lat="46.487880000" lon="-72.560340000">
<ele>0</ele>
<time>2026-09-04T06:37:27Z</time>
</trkpt>
<trkpt lat="46.490260000" lon="-72.563710000">
<ele>0</ele>
<time>2026-09-04T06:37:28Z</time>
</trkpt>
<trkpt lat="46.490840000" lon="-72.564480000">
<ele>0</ele>
<time>2026-09-04T06:37:29Z</time>
</trkpt>
<trkpt lat="46.491010000" lon="-72.564660000">
<ele>0</ele>
<time>2026-09-04T06:37:30Z</time>
</trkpt>
<trkpt lat="46.491190000" lon="-72.564830000">
<ele>0</ele>
<time>2026-09-04T06:37:31Z</time>
</trkpt>
<trkpt lat="46.491560000" lon="-72.565060000">
<ele>0</ele>
<time>2026-09-04T06:37:32Z</time>
</trkpt>
<trkpt lat="46.491950000" lon="-72.565190000">
<ele>0</ele>
<time>2026-09-04T06:37:33Z</time>
</trkpt>
<trkpt lat="46.492580000" lon="-72.565500000">
<ele>0</ele>
<time>2026-09-04T06:37:34Z</time>
</trkpt>
<trkpt lat="46.493040000" lon="-72.566010000">
<ele>0</ele>
<time>2026-09-04T06:37:35Z</time>
</trkpt>
<trkpt lat="46.493620000" lon="-72.566800000">
<ele>0</ele>
<time>2026-09-04T06:37:36Z</time>
</trkpt>
<trkpt lat="46.494690000" lon="-72.568360000">
<ele>0</ele>
<time>2026-09-04T06:37:37Z</time>
</trkpt>
<trkpt lat="46.495620000" lon="-72.569720000">
<ele>0</ele>
<time>2026-09-04T06:37:38Z</time>
</trkpt>
<trkpt lat="46.497320000" lon="-72.572130000">
<ele>0</ele>
<time>2026-09-04T06:37:39Z</time>
</trkpt>
<trkpt lat="46.499710000" lon="-72.575470000">
<ele>0</ele>
<time>2026-09-04T06:37:40Z</time>
</trkpt>
<trkpt lat="46.500250000" lon="-72.576220000">
<ele>0</ele>
<time>2026-09-04T06:37:41Z</time>
</trkpt>
<trkpt lat="46.501010000" lon="-72.577350000">
<ele>0</ele>
<time>2026-09-04T06:37:42Z</time>
</trkpt>
<trkpt lat="46.501250000" lon="-72.577000000">
<ele>0</ele>
<time>2026-09-04T06:37:43Z</time>
</trkpt>
<trkpt lat="46.501250000" lon="-72.577000000">
<ele>0</ele>
<time>2026-09-04T06:37:44Z</time>
</trkpt>
<trkpt lat="46.502900000" lon="-72.574570000">
<ele>0</ele>
<time>2026-09-04T06:37:45Z</time>
</trkpt>
<trkpt lat="46.504690000" lon="-72.571920000">
<ele>0</ele>
<time>2026-09-04T06:37:46Z</time>
</trkpt>
<trkpt lat="46.505620000" lon="-72.570380000">
<ele>0</ele>
<time>2026-09-04T06:37:47Z</time>
</trkpt>
<trkpt lat="46.506090000" lon="-72.569690000">
<ele>0</ele>
<time>2026-09-04T06:37:48Z</time>
</trkpt>
<trkpt lat="46.506720000" lon="-72.568750000">
<ele>0</ele>
<time>2026-09-04T06:37:49Z</time>
</trkpt>
<trkpt lat="46.508480000" lon="-72.566140000">
<ele>0</ele>
<time>2026-09-04T06:37:50Z</time>
</trkpt>
<trkpt lat="46.511000000" lon="-72.562400000">
<ele>0</ele>
<time>2026-09-04T06:37:51Z</time>
</trkpt>
<trkpt lat="46.513730000" lon="-72.558340000">
<ele>0</ele>
<time>2026-09-04T06:37:52Z</time>
</trkpt>
<trkpt lat="46.514620000" lon="-72.557040000">
<ele>0</ele>
<time>2026-09-04T06:37:53Z</time>
</trkpt>
<trkpt lat="46.515130000" lon="-72.556310000">
<ele>0</ele>
<time>2026-09-04T06:37:54Z</time>
</trkpt>
<trkpt lat="46.516290000" lon="-72.554670000">
<ele>0</ele>
<time>2026-09-04T06:37:55Z</time>
</trkpt>
<trkpt lat="46.518280000" lon="-72.551760000">
<ele>0</ele>
<time>2026-09-04T06:37:56Z</time>
</trkpt>
<trkpt lat="46.519960000" lon="-72.549270000">
<ele>0</ele>
<time>2026-09-04T06:37:57Z</time>
</trkpt>
<trkpt lat="46.521990000" lon="-72.546580000">
<ele>0</ele>
<time>2026-09-04T06:37:58Z</time>
</trkpt>
<trkpt lat="46.522670000" lon="-72.545640000">
<ele>0</ele>
<time>2026-09-04T06:37:59Z</time>
</trkpt>
<trkpt lat="46.523130000" lon="-72.544590000">
<ele>0</ele>
<time>2026-09-04T06:38:00Z</time>
</trkpt>
<trkpt lat="46.523330000" lon="-72.544130000">
<ele>0</ele>
<time>2026-09-04T06:38:01Z</time>
</trkpt>
<trkpt lat="46.523700000" lon="-72.543410000">
<ele>0</ele>
<time>2026-09-04T06:38:02Z</time>
</trkpt>
<trkpt lat="46.524610000" lon="-72.542100000">
<ele>0</ele>
<time>2026-09-04T06:38:03Z</time>
</trkpt>
<trkpt lat="46.525270000" lon="-72.541150000">
<ele>0</ele>
<time>2026-09-04T06:38:04Z</time>
</trkpt>
<trkpt lat="46.526130000" lon="-72.539910000">
<ele>0</ele>
<time>2026-09-04T06:38:05Z</time>
</trkpt>
<trkpt lat="46.526820000" lon="-72.538920000">
<ele>0</ele>
<time>2026-09-04T06:38:06Z</time>
</trkpt>
<trkpt lat="46.527590000" lon="-72.537820000">
<ele>0</ele>
<time>2026-09-04T06:38:07Z</time>
</trkpt>
<trkpt lat="46.530160000" lon="-72.534110000">
<ele>0</ele>
<time>2026-09-04T06:38:08Z</time>
</trkpt>
<trkpt lat="46.530890000" lon="-72.533070000">
<ele>0</ele>
<time>2026-09-04T06:38:09Z</time>
</trkpt>
<trkpt lat="46.532510000" lon="-72.530700000">
<ele>0</ele>
<time>2026-09-04T06:38:10Z</time>
</trkpt>
<trkpt lat="46.533930000" lon="-72.528470000">
<ele>0</ele>
<time>2026-09-04T06:38:11Z</time>
</trkpt>
<trkpt lat="46.534010000" lon="-72.528350000">
<ele>0</ele>
<time>2026-09-04T06:38:12Z</time>
</trkpt>
<trkpt lat="46.534890000" lon="-72.526990000">
<ele>0</ele>
<time>2026-09-04T06:38:13Z</time>
</trkpt>
<trkpt lat="46.535010000" lon="-72.526790000">
<ele>0</ele>
<time>2026-09-04T06:38:14Z</time>
</trkpt>
<trkpt lat="46.535240000" lon="-72.526410000">
<ele>0</ele>
<time>2026-09-04T06:38:15Z</time>
</trkpt>
<trkpt lat="46.535580000" lon="-72.525930000">
<ele>0</ele>
<time>2026-09-04T06:38:16Z</time>
</trkpt>
<trkpt lat="46.536290000" lon="-72.524960000">
<ele>0</ele>
<time>2026-09-04T06:38:17Z</time>
</trkpt>
<trkpt lat="46.537210000" lon="-72.523770000">
<ele>0</ele>
<time>2026-09-04T06:38:18Z</time>
</trkpt>
<trkpt lat="46.538630000" lon="-72.521870000">
<ele>0</ele>
<time>2026-09-04T06:38:19Z</time>
</trkpt>
<trkpt lat="46.539340000" lon="-72.520880000">
<ele>0</ele>
<time>2026-09-04T06:38:20Z</time>
</trkpt>
<trkpt lat="46.539640000" lon="-72.520220000">
<ele>0</ele>
<time>2026-09-04T06:38:21Z</time>
</trkpt>
<trkpt lat="46.539640000" lon="-72.520220000">
<ele>0</ele>
<time>2026-09-04T06:38:22Z</time>
</trkpt>
<trkpt lat="46.539760000" lon="-72.519850000">
<ele>0</ele>
<time>2026-09-04T06:38:23Z</time>
</trkpt>
<trkpt lat="46.539820000" lon="-72.519350000">
<ele>0</ele>
<time>2026-09-04T06:38:24Z</time>
</trkpt>
<trkpt lat="46.539830000" lon="-72.518980000">
<ele>0</ele>
<time>2026-09-04T06:38:25Z</time>
</trkpt>
<trkpt lat="46.539810000" lon="-72.518570000">
<ele>0</ele>
<time>2026-09-04T06:38:26Z</time>
</trkpt>
<trkpt lat="46.539720000" lon="-72.517990000">
<ele>0</ele>
<time>2026-09-04T06:38:27Z</time>
</trkpt>
<trkpt lat="46.539540000" lon="-72.517490000">
<ele>0</ele>
<time>2026-09-04T06:38:28Z</time>
</trkpt>
<trkpt lat="46.539230000" lon="-72.516900000">
<ele>0</ele>
<time>2026-09-04T06:38:29Z</time>
</trkpt>
<trkpt lat="46.539100000" lon="-72.516690000">
<ele>0</ele>
<time>2026-09-04T06:38:30Z</time>
</trkpt>
<trkpt lat="46.538170000" lon="-72.515220000">
<ele>0</ele>
<time>2026-09-04T06:38:31Z</time>
</trkpt>
<trkpt lat="46.538100000" lon="-72.515110000">
<ele>0</ele>
<time>2026-09-04T06:38:32Z</time>
</trkpt>
<trkpt lat="46.537930000" lon="-72.514850000">
<ele>0</ele>
<time>2026-09-04T06:38:33Z</time>
</trkpt>
<trkpt lat="46.537780000" lon="-72.514490000">
<ele>0</ele>
<time>2026-09-04T06:38:34Z</time>
</trkpt>
<trkpt lat="46.537670000" lon="-72.513860000">
<ele>0</ele>
<time>2026-09-04T06:38:35Z</time>
</trkpt>
<trkpt lat="46.537660000" lon="-72.513500000">
<ele>0</ele>
<time>2026-09-04T06:38:36Z</time>
</trkpt>
<trkpt lat="46.537650000" lon="-72.513230000">
<ele>0</ele>
<time>2026-09-04T06:38:37Z</time>
</trkpt>
<trkpt lat="46.537710000" lon="-72.512040000">
<ele>0</ele>
<time>2026-09-04T06:38:38Z</time>
</trkpt>
<trkpt lat="46.537750000" lon="-72.511150000">
<ele>0</ele>
<time>2026-09-04T06:38:39Z</time>
</trkpt>
<trkpt lat="46.537910000" lon="-72.510510000">
<ele>0</ele>
<time>2026-09-04T06:38:40Z</time>
</trkpt>
<trkpt lat="46.538090000" lon="-72.510030000">
<ele>0</ele>
<time>2026-09-04T06:38:41Z</time>
</trkpt>
<trkpt lat="46.538310000" lon="-72.509600000">
<ele>0</ele>
<time>2026-09-04T06:38:42Z</time>
</trkpt>
<trkpt lat="46.538580000" lon="-72.509210000">
<ele>0</ele>
<time>2026-09-04T06:38:43Z</time>
</trkpt>
<trkpt lat="46.539060000" lon="-72.508540000">
<ele>0</ele>
<time>2026-09-04T06:38:44Z</time>
</trkpt>
<trkpt lat="46.539460000" lon="-72.508000000">
<ele>0</ele>
<time>2026-09-04T06:38:45Z</time>
</trkpt>
<trkpt lat="46.541070000" lon="-72.505910000">
<ele>0</ele>
<time>2026-09-04T06:38:46Z</time>
</trkpt>
<trkpt lat="46.542910000" lon="-72.503480000">
<ele>0</ele>
<time>2026-09-04T06:38:47Z</time>
</trkpt>
<trkpt lat="46.544510000" lon="-72.501310000">
<ele>0</ele>
<time>2026-09-04T06:38:48Z</time>
</trkpt>
<trkpt lat="46.545220000" lon="-72.500350000">
<ele>0</ele>
<time>2026-09-04T06:38:49Z</time>
</trkpt>
<trkpt lat="46.546110000" lon="-72.499220000">
<ele>0</ele>
<time>2026-09-04T06:38:50Z</time>
</trkpt>
<trkpt lat="46.546000000" lon="-72.499050000">
<ele>0</ele>
<time>2026-09-04T06:38:51Z</time>
</trkpt>
<trkpt lat="46.546000000" lon="-72.499050000">
<ele>0</ele>
<time>2026-09-04T06:38:52Z</time>
</trkpt>
<trkpt lat="46.545540000" lon="-72.498320000">
<ele>0</ele>
<time>2026-09-04T06:38:53Z</time>
</trkpt>
<trkpt lat="46.545960000" lon="-72.497710000">
<ele>0</ele>
<time>2026-09-04T06:38:54Z</time>
</trkpt>
<trkpt lat="46.545960000" lon="-72.497700000">
<ele>0</ele>
<time>2026-09-04T06:38:55Z</time>
</trkpt>
<trkpt lat="46.545960000" lon="-72.497700000">
<ele>0</ele>
<time>2026-09-04T06:38:56Z</time>
</trkpt>
<trkpt lat="46.547980000" lon="-72.494960000">
<ele>0</ele>
<time>2026-09-04T06:38:57Z</time>
</trkpt>
<trkpt lat="46.549910000" lon="-72.492370000">
<ele>0</ele>
<time>2026-09-04T06:38:58Z</time>
</trkpt>
<trkpt lat="46.551640000" lon="-72.490080000">
<ele>0</ele>
<time>2026-09-04T06:38:59Z</time>
</trkpt>
<trkpt lat="46.554320000" lon="-72.486450000">
<ele>0</ele>
<time>2026-09-04T06:39:00Z</time>
</trkpt>
<trkpt lat="46.555780000" lon="-72.484490000">
<ele>0</ele>
<time>2026-09-04T06:39:01Z</time>
</trkpt>
<trkpt lat="46.555780000" lon="-72.484490000">
<ele>0</ele>
<time>2026-09-04T06:39:02Z</time>
</trkpt>
<trkpt lat="46.558180000" lon="-72.481270000">
<ele>0</ele>
<time>2026-09-04T06:39:03Z</time>
</trkpt>
<trkpt lat="46.558800000" lon="-72.480460000">
<ele>0</ele>
<time>2026-09-04T06:39:04Z</time>
</trkpt>
<trkpt lat="46.559490000" lon="-72.479600000">
<ele>0</ele>
<time>2026-09-04T06:39:05Z</time>
</trkpt>
<trkpt lat="46.559840000" lon="-72.479200000">
<ele>0</ele>
<time>2026-09-04T06:39:06Z</time>
</trkpt>
<trkpt lat="46.560010000" lon="-72.479000000">
<ele>0</ele>
<time>2026-09-04T06:39:07Z</time>
</trkpt>
<trkpt lat="46.560180000" lon="-72.478800000">
<ele>0</ele>
<time>2026-09-04T06:39:08Z</time>
</trkpt>
<trkpt lat="46.560640000" lon="-72.478170000">
<ele>0</ele>
<time>2026-09-04T06:39:09Z</time>
</trkpt>
<trkpt lat="46.561060000" lon="-72.477530000">
<ele>0</ele>
<time>2026-09-04T06:39:10Z</time>
</trkpt>
<trkpt lat="46.561060000" lon="-72.477530000">
<ele>0</ele>
<time>2026-09-04T06:39:11Z</time>
</trkpt>
<trkpt lat="46.561370000" lon="-72.476920000">
<ele>0</ele>
<time>2026-09-04T06:39:12Z</time>
</trkpt>
<trkpt lat="46.561690000" lon="-72.476230000">
<ele>0</ele>
<time>2026-09-04T06:39:13Z</time>
</trkpt>
<trkpt lat="46.563080000" lon="-72.474350000">
<ele>0</ele>
<time>2026-09-04T06:39:14Z</time>
</trkpt>
<trkpt lat="46.563800000" lon="-72.473390000">
<ele>0</ele>
<time>2026-09-04T06:39:15Z</time>
</trkpt>
<trkpt lat="46.564320000" lon="-72.472640000">
<ele>0</ele>
<time>2026-09-04T06:39:16Z</time>
</trkpt>
<trkpt lat="46.564390000" lon="-72.472460000">
<ele>0</ele>
<time>2026-09-04T06:39:17Z</time>
</trkpt>
<trkpt lat="46.564420000" lon="-72.472320000">
<ele>0</ele>
<time>2026-09-04T06:39:18Z</time>
</trkpt>
<trkpt lat="46.564390000" lon="-72.472020000">
<ele>0</ele>
<time>2026-09-04T06:39:19Z</time>
</trkpt>
<trkpt lat="46.564310000" lon="-72.471840000">
<ele>0</ele>
<time>2026-09-04T06:39:20Z</time>
</trkpt>
<trkpt lat="46.564210000" lon="-72.471690000">
<ele>0</ele>
<time>2026-09-04T06:39:21Z</time>
</trkpt>
<trkpt lat="46.564210000" lon="-72.471690000">
<ele>0</ele>
<time>2026-09-04T06:39:22Z</time>
</trkpt>
<trkpt lat="46.563800000" lon="-72.471070000">
<ele>0</ele>
<time>2026-09-04T06:39:23Z</time>
</trkpt>
<trkpt lat="46.563300000" lon="-72.470330000">
<ele>0</ele>
<time>2026-09-04T06:39:24Z</time>
</trkpt>
<trkpt lat="46.562800000" lon="-72.469540000">
<ele>0</ele>
<time>2026-09-04T06:39:25Z</time>
</trkpt>
<trkpt lat="46.561960000" lon="-72.468210000">
<ele>0</ele>
<time>2026-09-04T06:39:26Z</time>
</trkpt>
<trkpt lat="46.561470000" lon="-72.467440000">
<ele>0</ele>
<time>2026-09-04T06:39:27Z</time>
</trkpt>
<trkpt lat="46.560120000" lon="-72.465280000">
<ele>0</ele>
<time>2026-09-04T06:39:28Z</time>
</trkpt>
<trkpt lat="46.560120000" lon="-72.465280000">
<ele>0</ele>
<time>2026-09-04T06:39:29Z</time>
</trkpt>
<trkpt lat="46.558610000" lon="-72.462870000">
<ele>0</ele>
<time>2026-09-04T06:39:30Z</time>
</trkpt>
<trkpt lat="46.557800000" lon="-72.461560000">
<ele>0</ele>
<time>2026-09-04T06:39:31Z</time>
</trkpt>
<trkpt lat="46.557110000" lon="-72.460490000">
<ele>0</ele>
<time>2026-09-04T06:39:32Z</time>
</trkpt>
<trkpt lat="46.556250000" lon="-72.459140000">
<ele>0</ele>
<time>2026-09-04T06:39:33Z</time>
</trkpt>
<trkpt lat="46.555890000" lon="-72.458570000">
<ele>0</ele>
<time>2026-09-04T06:39:34Z</time>
</trkpt>
<trkpt lat="46.554970000" lon="-72.457160000">
<ele>0</ele>
<time>2026-09-04T06:39:35Z</time>
</trkpt>
<trkpt lat="46.553890000" lon="-72.455530000">
<ele>0</ele>
<time>2026-09-04T06:39:36Z</time>
</trkpt>
<trkpt lat="46.552790000" lon="-72.453820000">
<ele>0</ele>
<time>2026-09-04T06:39:37Z</time>
</trkpt>
<trkpt lat="46.551280000" lon="-72.451470000">
<ele>0</ele>
<time>2026-09-04T06:39:38Z</time>
</trkpt>
<trkpt lat="46.549370000" lon="-72.448570000">
<ele>0</ele>
<time>2026-09-04T06:39:39Z</time>
</trkpt>
<trkpt lat="46.548490000" lon="-72.447260000">
<ele>0</ele>
<time>2026-09-04T06:39:40Z</time>
</trkpt>
<trkpt lat="46.547690000" lon="-72.446040000">
<ele>0</ele>
<time>2026-09-04T06:39:41Z</time>
</trkpt>
<trkpt lat="46.544620000" lon="-72.441430000">
<ele>0</ele>
<time>2026-09-04T06:39:42Z</time>
</trkpt>
<trkpt lat="46.543000000" lon="-72.438980000">
<ele>0</ele>
<time>2026-09-04T06:39:43Z</time>
</trkpt>
<trkpt lat="46.541510000" lon="-72.436710000">
<ele>0</ele>
<time>2026-09-04T06:39:44Z</time>
</trkpt>
<trkpt lat="46.539100000" lon="-72.433230000">
<ele>0</ele>
<time>2026-09-04T06:39:45Z</time>
</trkpt>
<trkpt lat="46.538680000" lon="-72.432460000">
<ele>0</ele>
<time>2026-09-04T06:39:46Z</time>
</trkpt>
<trkpt lat="46.538570000" lon="-72.432200000">
<ele>0</ele>
<time>2026-09-04T06:39:47Z</time>
</trkpt>
<trkpt lat="46.538390000" lon="-72.431690000">
<ele>0</ele>
<time>2026-09-04T06:39:48Z</time>
</trkpt>
<trkpt lat="46.538320000" lon="-72.431450000">
<ele>0</ele>
<time>2026-09-04T06:39:49Z</time>
</trkpt>
<trkpt lat="46.538190000" lon="-72.430830000">
<ele>0</ele>
<time>2026-09-04T06:39:50Z</time>
</trkpt>
<trkpt lat="46.538140000" lon="-72.430490000">
<ele>0</ele>
<time>2026-09-04T06:39:51Z</time>
</trkpt>
<trkpt lat="46.538100000" lon="-72.430020000">
<ele>0</ele>
<time>2026-09-04T06:39:52Z</time>
</trkpt>
<trkpt lat="46.538120000" lon="-72.428610000">
<ele>0</ele>
<time>2026-09-04T06:39:53Z</time>
</trkpt>
<trkpt lat="46.538120000" lon="-72.427800000">
<ele>0</ele>
<time>2026-09-04T06:39:54Z</time>
</trkpt>
<trkpt lat="46.538080000" lon="-72.427070000">
<ele>0</ele>
<time>2026-09-04T06:39:55Z</time>
</trkpt>
<trkpt lat="46.537820000" lon="-72.425880000">
<ele>0</ele>
<time>2026-09-04T06:39:56Z</time>
</trkpt>
<trkpt lat="46.537540000" lon="-72.425270000">
<ele>0</ele>
<time>2026-09-04T06:39:57Z</time>
</trkpt>
<trkpt lat="46.537450000" lon="-72.425080000">
<ele>0</ele>
<time>2026-09-04T06:39:58Z</time>
</trkpt>
<trkpt lat="46.537060000" lon="-72.424500000">
<ele>0</ele>
<time>2026-09-04T06:39:59Z</time>
</trkpt>
<trkpt lat="46.536040000" lon="-72.423020000">
<ele>0</ele>
<time>2026-09-04T06:40:00Z</time>
</trkpt>
<trkpt lat="46.535650000" lon="-72.422450000">
<ele>0</ele>
<time>2026-09-04T06:40:01Z</time>
</trkpt>
<trkpt lat="46.535650000" lon="-72.422450000">
<ele>0</ele>
<time>2026-09-04T06:40:02Z</time>
</trkpt>
<trkpt lat="46.530620000" lon="-72.415120000">
<ele>0</ele>
<time>2026-09-04T06:40:03Z</time>
</trkpt>
<trkpt lat="46.528440000" lon="-72.411990000">
<ele>0</ele>
<time>2026-09-04T06:40:04Z</time>
</trkpt>
<trkpt lat="46.525490000" lon="-72.407780000">
<ele>0</ele>
<time>2026-09-04T06:40:05Z</time>
</trkpt>
<trkpt lat="46.525200000" lon="-72.407250000">
<ele>0</ele>
<time>2026-09-04T06:40:06Z</time>
</trkpt>
<trkpt lat="46.525030000" lon="-72.406780000">
<ele>0</ele>
<time>2026-09-04T06:40:07Z</time>
</trkpt>
<trkpt lat="46.524970000" lon="-72.406430000">
<ele>0</ele>
<time>2026-09-04T06:40:08Z</time>
</trkpt>
<trkpt lat="46.524920000" lon="-72.406160000">
<ele>0</ele>
<time>2026-09-04T06:40:09Z</time>
</trkpt>
<trkpt lat="46.524910000" lon="-72.405660000">
<ele>0</ele>
<time>2026-09-04T06:40:10Z</time>
</trkpt>
<trkpt lat="46.524920000" lon="-72.405400000">
<ele>0</ele>
<time>2026-09-04T06:40:11Z</time>
</trkpt>
<trkpt lat="46.524970000" lon="-72.404980000">
<ele>0</ele>
<time>2026-09-04T06:40:12Z</time>
</trkpt>
<trkpt lat="46.525150000" lon="-72.404340000">
<ele>0</ele>
<time>2026-09-04T06:40:13Z</time>
</trkpt>
<trkpt lat="46.525430000" lon="-72.403790000">
<ele>0</ele>
<time>2026-09-04T06:40:14Z</time>
</trkpt>
<trkpt lat="46.525850000" lon="-72.403140000">
<ele>0</ele>
<time>2026-09-04T06:40:15Z</time>
</trkpt>
<trkpt lat="46.525850000" lon="-72.403140000">
<ele>0</ele>
<time>2026-09-04T06:40:16Z</time>
</trkpt>
<trkpt lat="46.528310000" lon="-72.399430000">
<ele>0</ele>
<time>2026-09-04T06:40:17Z</time>
</trkpt>
<trkpt lat="46.529770000" lon="-72.397240000">
<ele>0</ele>
<time>2026-09-04T06:40:18Z</time>
</trkpt>
<trkpt lat="46.530620000" lon="-72.395840000">
<ele>0</ele>
<time>2026-09-04T06:40:19Z</time>
</trkpt>
<trkpt lat="46.531240000" lon="-72.394500000">
<ele>0</ele>
<time>2026-09-04T06:40:20Z</time>
</trkpt>
<trkpt lat="46.531550000" lon="-72.393630000">
<ele>0</ele>
<time>2026-09-04T06:40:21Z</time>
</trkpt>
<trkpt lat="46.531900000" lon="-72.392540000">
<ele>0</ele>
<time>2026-09-04T06:40:22Z</time>
</trkpt>
<trkpt lat="46.532160000" lon="-72.391500000">
<ele>0</ele>
<time>2026-09-04T06:40:23Z</time>
</trkpt>
<trkpt lat="46.532370000" lon="-72.390450000">
<ele>0</ele>
<time>2026-09-04T06:40:24Z</time>
</trkpt>
<trkpt lat="46.532440000" lon="-72.390100000">
<ele>0</ele>
<time>2026-09-04T06:40:25Z</time>
</trkpt>
<trkpt lat="46.532560000" lon="-72.389170000">
<ele>0</ele>
<time>2026-09-04T06:40:26Z</time>
</trkpt>
<trkpt lat="46.532770000" lon="-72.387110000">
<ele>0</ele>
<time>2026-09-04T06:40:27Z</time>
</trkpt>
<trkpt lat="46.532840000" lon="-72.386060000">
<ele>0</ele>
<time>2026-09-04T06:40:28Z</time>
</trkpt>
<trkpt lat="46.532960000" lon="-72.384120000">
<ele>0</ele>
<time>2026-09-04T06:40:29Z</time>
</trkpt>
<trkpt lat="46.533000000" lon="-72.381890000">
<ele>0</ele>
<time>2026-09-04T06:40:30Z</time>
</trkpt>
<trkpt lat="46.533030000" lon="-72.380200000">
<ele>0</ele>
<time>2026-09-04T06:40:31Z</time>
</trkpt>
<trkpt lat="46.533070000" lon="-72.379780000">
<ele>0</ele>
<time>2026-09-04T06:40:32Z</time>
</trkpt>
<trkpt lat="46.533200000" lon="-72.379040000">
<ele>0</ele>
<time>2026-09-04T06:40:33Z</time>
</trkpt>
<trkpt lat="46.533590000" lon="-72.377020000">
<ele>0</ele>
<time>2026-09-04T06:40:34Z</time>
</trkpt>
<trkpt lat="46.533810000" lon="-72.375920000">
<ele>0</ele>
<time>2026-09-04T06:40:35Z</time>
</trkpt>
<trkpt lat="46.533870000" lon="-72.375340000">
<ele>0</ele>
<time>2026-09-04T06:40:36Z</time>
</trkpt>
<trkpt lat="46.533920000" lon="-72.374680000">
<ele>0</ele>
<time>2026-09-04T06:40:37Z</time>
</trkpt>
<trkpt lat="46.533960000" lon="-72.373140000">
<ele>0</ele>
<time>2026-09-04T06:40:38Z</time>
</trkpt>
<trkpt lat="46.534020000" lon="-72.370310000">
<ele>0</ele>
<time>2026-09-04T06:40:39Z</time>
</trkpt>
<trkpt lat="46.534020000" lon="-72.369130000">
<ele>0</ele>
<time>2026-09-04T06:40:40Z</time>
</trkpt>
<trkpt lat="46.533910000" lon="-72.368130000">
<ele>0</ele>
<time>2026-09-04T06:40:41Z</time>
</trkpt>
<trkpt lat="46.533750000" lon="-72.367340000">
<ele>0</ele>
<time>2026-09-04T06:40:42Z</time>
</trkpt>
<trkpt lat="46.533610000" lon="-72.366780000">
<ele>0</ele>
<time>2026-09-04T06:40:43Z</time>
</trkpt>
<trkpt lat="46.533490000" lon="-72.366470000">
<ele>0</ele>
<time>2026-09-04T06:40:44Z</time>
</trkpt>
<trkpt lat="46.533310000" lon="-72.366030000">
<ele>0</ele>
<time>2026-09-04T06:40:45Z</time>
</trkpt>
<trkpt lat="46.533180000" lon="-72.365750000">
<ele>0</ele>
<time>2026-09-04T06:40:46Z</time>
</trkpt>
<trkpt lat="46.532960000" lon="-72.365340000">
<ele>0</ele>
<time>2026-09-04T06:40:47Z</time>
</trkpt>
<trkpt lat="46.532730000" lon="-72.364940000">
<ele>0</ele>
<time>2026-09-04T06:40:48Z</time>
</trkpt>
<trkpt lat="46.532310000" lon="-72.364430000">
<ele>0</ele>
<time>2026-09-04T06:40:49Z</time>
</trkpt>
<trkpt lat="46.531340000" lon="-72.363300000">
<ele>0</ele>
<time>2026-09-04T06:40:50Z</time>
</trkpt>
<trkpt lat="46.531060000" lon="-72.362990000">
<ele>0</ele>
<time>2026-09-04T06:40:51Z</time>
</trkpt>
<trkpt lat="46.530900000" lon="-72.362810000">
<ele>0</ele>
<time>2026-09-04T06:40:52Z</time>
</trkpt>
<trkpt lat="46.529890000" lon="-72.361680000">
<ele>0</ele>
<time>2026-09-04T06:40:53Z</time>
</trkpt>
<trkpt lat="46.529620000" lon="-72.361370000">
<ele>0</ele>
<time>2026-09-04T06:40:54Z</time>
</trkpt>
<trkpt lat="46.529090000" lon="-72.360690000">
<ele>0</ele>
<time>2026-09-04T06:40:55Z</time>
</trkpt>
<trkpt lat="46.528770000" lon="-72.360100000">
<ele>0</ele>
<time>2026-09-04T06:40:56Z</time>
</trkpt>
<trkpt lat="46.528550000" lon="-72.359710000">
<ele>0</ele>
<time>2026-09-04T06:40:57Z</time>
</trkpt>
<trkpt lat="46.528350000" lon="-72.359210000">
<ele>0</ele>
<time>2026-09-04T06:40:58Z</time>
</trkpt>
<trkpt lat="46.528280000" lon="-72.359000000">
<ele>0</ele>
<time>2026-09-04T06:40:59Z</time>
</trkpt>
<trkpt lat="46.528090000" lon="-72.358440000">
<ele>0</ele>
<time>2026-09-04T06:41:00Z</time>
</trkpt>
<trkpt lat="46.527910000" lon="-72.357760000">
<ele>0</ele>
<time>2026-09-04T06:41:01Z</time>
</trkpt>
<trkpt lat="46.527810000" lon="-72.357260000">
<ele>0</ele>
<time>2026-09-04T06:41:02Z</time>
</trkpt>
<trkpt lat="46.527700000" lon="-72.356580000">
<ele>0</ele>
<time>2026-09-04T06:41:03Z</time>
</trkpt>
<trkpt lat="46.527660000" lon="-72.355900000">
<ele>0</ele>
<time>2026-09-04T06:41:04Z</time>
</trkpt>
<trkpt lat="46.527670000" lon="-72.355260000">
<ele>0</ele>
<time>2026-09-04T06:41:05Z</time>
</trkpt>
<trkpt lat="46.527740000" lon="-72.353960000">
<ele>0</ele>
<time>2026-09-04T06:41:06Z</time>
</trkpt>
<trkpt lat="46.527840000" lon="-72.351870000">
<ele>0</ele>
<time>2026-09-04T06:41:07Z</time>
</trkpt>
<trkpt lat="46.527830000" lon="-72.351110000">
<ele>0</ele>
<time>2026-09-04T06:41:08Z</time>
</trkpt>
<trkpt lat="46.527750000" lon="-72.349840000">
<ele>0</ele>
<time>2026-09-04T06:41:09Z</time>
</trkpt>
<trkpt lat="46.527620000" lon="-72.348690000">
<ele>0</ele>
<time>2026-09-04T06:41:10Z</time>
</trkpt>
<trkpt lat="46.527550000" lon="-72.348210000">
<ele>0</ele>
<time>2026-09-04T06:41:11Z</time>
</trkpt>
<trkpt lat="46.527470000" lon="-72.347540000">
<ele>0</ele>
<time>2026-09-04T06:41:12Z</time>
</trkpt>
<trkpt lat="46.527400000" lon="-72.346340000">
<ele>0</ele>
<time>2026-09-04T06:41:13Z</time>
</trkpt>
<trkpt lat="46.527090000" lon="-72.344140000">
<ele>0</ele>
<time>2026-09-04T06:41:14Z</time>
</trkpt>
<trkpt lat="46.527010000" lon="-72.343590000">
<ele>0</ele>
<time>2026-09-04T06:41:15Z</time>
</trkpt>
<trkpt lat="46.526970000" lon="-72.343040000">
<ele>0</ele>
<time>2026-09-04T06:41:16Z</time>
</trkpt>
<trkpt lat="46.526930000" lon="-72.342570000">
<ele>0</ele>
<time>2026-09-04T06:41:17Z</time>
</trkpt>
<trkpt lat="46.526880000" lon="-72.341930000">
<ele>0</ele>
<time>2026-09-04T06:41:18Z</time>
</trkpt>
<trkpt lat="46.526870000" lon="-72.341160000">
<ele>0</ele>
<time>2026-09-04T06:41:19Z</time>
</trkpt>
<trkpt lat="46.526860000" lon="-72.340900000">
<ele>0</ele>
<time>2026-09-04T06:41:20Z</time>
</trkpt>
<trkpt lat="46.526710000" lon="-72.339470000">
<ele>0</ele>
<time>2026-09-04T06:41:21Z</time>
</trkpt>
<trkpt lat="46.526940000" lon="-72.339450000">
<ele>0</ele>
<time>2026-09-04T06:41:22Z</time>
</trkpt>
<trkpt lat="46.526940000" lon="-72.339450000">
<ele>0</ele>
<time>2026-09-04T06:41:23Z</time>
</trkpt>
<trkpt lat="46.527770000" lon="-72.339390000">
<ele>0</ele>
<time>2026-09-04T06:41:24Z</time>
</trkpt>
<trkpt lat="46.528500000" lon="-72.339360000">
<ele>0</ele>
<time>2026-09-04T06:41:25Z</time>
</trkpt>
<trkpt lat="46.529040000" lon="-72.339330000">
<ele>0</ele>
<time>2026-09-04T06:41:26Z</time>
</trkpt>
<trkpt lat="46.529380000" lon="-72.339320000">
<ele>0</ele>
<time>2026-09-04T06:41:27Z</time>
</trkpt>
<trkpt lat="46.529600000" lon="-72.339300000">
<ele>0</ele>
<time>2026-09-04T06:41:28Z</time>
</trkpt>
<trkpt lat="46.529600000" lon="-72.339190000">
<ele>0</ele>
<time>2026-09-04T06:41:29Z</time>
</trkpt>
<trkpt lat="46.529590000" lon="-72.339080000">
<ele>0</ele>
<time>2026-09-04T06:41:30Z</time>
</trkpt>
<trkpt lat="46.529550000" lon="-72.339000000">
<ele>0</ele>
<time>2026-09-04T06:41:31Z</time>
</trkpt>
<trkpt lat="46.529490000" lon="-72.338890000">
<ele>0</ele>
<time>2026-09-04T06:41:32Z</time>
</trkpt>
<trkpt lat="46.529450000" lon="-72.338740000">
<ele>0</ele>
<time>2026-09-04T06:41:33Z</time>
</trkpt>
<trkpt lat="46.529400000" lon="-72.338490000">
<ele>0</ele>
<time>2026-09-04T06:41:34Z</time>
</trkpt>
<trkpt lat="46.529350000" lon="-72.338230000">
<ele>0</ele>
<time>2026-09-04T06:41:35Z</time>
</trkpt>
<trkpt lat="46.529250000" lon="-72.338250000">
<ele>0</ele>
<time>2026-09-04T06:41:36Z</time>
</trkpt>
<trkpt lat="46.529180000" lon="-72.338290000">
<ele>0</ele>
<time>2026-09-04T06:41:37Z</time>
</trkpt>
<trkpt lat="46.529140000" lon="-72.338380000">
<ele>0</ele>
<time>2026-09-04T06:41:38Z</time>
</trkpt>
<trkpt lat="46.529090000" lon="-72.338630000">
<ele>0</ele>
<time>2026-09-04T06:41:39Z</time>
</trkpt>
<trkpt lat="46.529040000" lon="-72.338880000">
<ele>0</ele>
<time>2026-09-04T06:41:40Z</time>
</trkpt>
<trkpt lat="46.528970000" lon="-72.338920000">
<ele>0</ele>
<time>2026-09-04T06:41:41Z</time>
</trkpt>
<trkpt lat="46.528620000" lon="-72.338830000">
<ele>0</ele>
<time>2026-09-04T06:41:42Z</time>
</trkpt>
<trkpt lat="46.528620000" lon="-72.338830000">
<ele>0</ele>
<time>2026-09-04T06:41:43Z</time>
</trkpt>
<trkpt lat="46.528970000" lon="-72.338920000">
<ele>0</ele>
<time>2026-09-04T06:41:44Z</time>
</trkpt>
<trkpt lat="46.529040000" lon="-72.338880000">
<ele>0</ele>
<time>2026-09-04T06:41:45Z</time>
</trkpt>
<trkpt lat="46.529090000" lon="-72.338630000">
<ele>0</ele>
<time>2026-09-04T06:41:46Z</time>
</trkpt>
<trkpt lat="46.529140000" lon="-72.338380000">
<ele>0</ele>
<time>2026-09-04T06:41:47Z</time>
</trkpt>
<trkpt lat="46.529180000" lon="-72.338290000">
<ele>0</ele>
<time>2026-09-04T06:41:48Z</time>
</trkpt>
<trkpt lat="46.529250000" lon="-72.338250000">
<ele>0</ele>
<time>2026-09-04T06:41:49Z</time>
</trkpt>
<trkpt lat="46.529350000" lon="-72.338230000">
<ele>0</ele>
<time>2026-09-04T06:41:50Z</time>
</trkpt>
<trkpt lat="46.529400000" lon="-72.338490000">
<ele>0</ele>
<time>2026-09-04T06:41:51Z</time>
</trkpt>
<trkpt lat="46.529450000" lon="-72.338740000">
<ele>0</ele>
<time>2026-09-04T06:41:52Z</time>
</trkpt>
<trkpt lat="46.529490000" lon="-72.338890000">
<ele>0</ele>
<time>2026-09-04T06:41:53Z</time>
</trkpt>
<trkpt lat="46.529550000" lon="-72.339000000">
<ele>0</ele>
<time>2026-09-04T06:41:54Z</time>
</trkpt>
<trkpt lat="46.529590000" lon="-72.339080000">
<ele>0</ele>
<time>2026-09-04T06:41:55Z</time>
</trkpt>
<trkpt lat="46.529600000" lon="-72.339190000">
<ele>0</ele>
<time>2026-09-04T06:41:56Z</time>
</trkpt>
<trkpt lat="46.529600000" lon="-72.339300000">
<ele>0</ele>
<time>2026-09-04T06:41:57Z</time>
</trkpt>
<trkpt lat="46.529380000" lon="-72.339320000">
<ele>0</ele>
<time>2026-09-04T06:41:58Z</time>
</trkpt>
<trkpt lat="46.529040000" lon="-72.339330000">
<ele>0</ele>
<time>2026-09-04T06:41:59Z</time>
</trkpt>
<trkpt lat="46.528720000" lon="-72.339350000">
<ele>0</ele>
<time>2026-09-04T06:42:00Z</time>
</trkpt>
<trkpt lat="46.527770000" lon="-72.339390000">
<ele>0</ele>
<time>2026-09-04T06:42:01Z</time>
</trkpt>
<trkpt lat="46.526710000" lon="-72.339470000">
<ele>0</ele>
<time>2026-09-04T06:42:02Z</time>
</trkpt>
<trkpt lat="46.526700000" lon="-72.339220000">
<ele>0</ele>
<time>2026-09-04T06:42:03Z</time>
</trkpt>
<trkpt lat="46.526700000" lon="-72.339220000">
<ele>0</ele>
<time>2026-09-04T06:42:04Z</time>
</trkpt>
<trkpt lat="46.526680000" lon="-72.338680000">
<ele>0</ele>
<time>2026-09-04T06:42:05Z</time>
</trkpt>
<trkpt lat="46.526670000" lon="-72.338160000">
<ele>0</ele>
<time>2026-09-04T06:42:06Z</time>
</trkpt>
<trkpt lat="46.526690000" lon="-72.337640000">
<ele>0</ele>
<time>2026-09-04T06:42:07Z</time>
</trkpt>
<trkpt lat="46.526770000" lon="-72.336300000">
<ele>0</ele>
<time>2026-09-04T06:42:08Z</time>
</trkpt>
<trkpt lat="46.526770000" lon="-72.336090000">
<ele>0</ele>
<time>2026-09-04T06:42:09Z</time>
</trkpt>
<trkpt lat="46.526830000" lon="-72.333920000">
<ele>0</ele>
<time>2026-09-04T06:42:10Z</time>
</trkpt>
<trkpt lat="46.526830000" lon="-72.333480000">
<ele>0</ele>
<time>2026-09-04T06:42:11Z</time>
</trkpt>
<trkpt lat="46.526830000" lon="-72.332800000">
<ele>0</ele>
<time>2026-09-04T06:42:12Z</time>
</trkpt>
<trkpt lat="46.526790000" lon="-72.332060000">
<ele>0</ele>
<time>2026-09-04T06:42:13Z</time>
</trkpt>
<trkpt lat="46.526750000" lon="-72.331270000">
<ele>0</ele>
<time>2026-09-04T06:42:14Z</time>
</trkpt>
<trkpt lat="46.526690000" lon="-72.329450000">
<ele>0</ele>
<time>2026-09-04T06:42:15Z</time>
</trkpt>
<trkpt lat="46.526680000" lon="-72.329190000">
<ele>0</ele>
<time>2026-09-04T06:42:16Z</time>
</trkpt>
<trkpt lat="46.526600000" lon="-72.328740000">
<ele>0</ele>
<time>2026-09-04T06:42:17Z</time>
</trkpt>
<trkpt lat="46.526480000" lon="-72.328360000">
<ele>0</ele>
<time>2026-09-04T06:42:18Z</time>
</trkpt>
<trkpt lat="46.526270000" lon="-72.327930000">
<ele>0</ele>
<time>2026-09-04T06:42:19Z</time>
</trkpt>
<trkpt lat="46.525800000" lon="-72.326940000">
<ele>0</ele>
<time>2026-09-04T06:42:20Z</time>
</trkpt>
<trkpt lat="46.525270000" lon="-72.325860000">
<ele>0</ele>
<time>2026-09-04T06:42:21Z</time>
</trkpt>
<trkpt lat="46.524840000" lon="-72.325030000">
<ele>0</ele>
<time>2026-09-04T06:42:22Z</time>
</trkpt>
<trkpt lat="46.524490000" lon="-72.324450000">
<ele>0</ele>
<time>2026-09-04T06:42:23Z</time>
</trkpt>
<trkpt lat="46.524230000" lon="-72.324010000">
<ele>0</ele>
<time>2026-09-04T06:42:24Z</time>
</trkpt>
<trkpt lat="46.524070000" lon="-72.323650000">
<ele>0</ele>
<time>2026-09-04T06:42:25Z</time>
</trkpt>
<trkpt lat="46.523980000" lon="-72.323370000">
<ele>0</ele>
<time>2026-09-04T06:42:26Z</time>
</trkpt>
<trkpt lat="46.523930000" lon="-72.323110000">
<ele>0</ele>
<time>2026-09-04T06:42:27Z</time>
</trkpt>
<trkpt lat="46.523850000" lon="-72.322610000">
<ele>0</ele>
<time>2026-09-04T06:42:28Z</time>
</trkpt>
<trkpt lat="46.523630000" lon="-72.321350000">
<ele>0</ele>
<time>2026-09-04T06:42:29Z</time>
</trkpt>
<trkpt lat="46.523580000" lon="-72.321100000">
<ele>0</ele>
<time>2026-09-04T06:42:30Z</time>
</trkpt>
<trkpt lat="46.523510000" lon="-72.320760000">
<ele>0</ele>
<time>2026-09-04T06:42:31Z</time>
</trkpt>
<trkpt lat="46.523320000" lon="-72.320120000">
<ele>0</ele>
<time>2026-09-04T06:42:32Z</time>
</trkpt>
<trkpt lat="46.523250000" lon="-72.319880000">
<ele>0</ele>
<time>2026-09-04T06:42:33Z</time>
</trkpt>
<trkpt lat="46.522810000" lon="-72.318580000">
<ele>0</ele>
<time>2026-09-04T06:42:34Z</time>
</trkpt>
<trkpt lat="46.522550000" lon="-72.317620000">
<ele>0</ele>
<time>2026-09-04T06:42:35Z</time>
</trkpt>
<trkpt lat="46.521530000" lon="-72.314490000">
<ele>0</ele>
<time>2026-09-04T06:42:36Z</time>
</trkpt>
<trkpt lat="46.521480000" lon="-72.314350000">
<ele>0</ele>
<time>2026-09-04T06:42:37Z</time>
</trkpt>
<trkpt lat="46.521330000" lon="-72.313950000">
<ele>0</ele>
<time>2026-09-04T06:42:38Z</time>
</trkpt>
<trkpt lat="46.521220000" lon="-72.313450000">
<ele>0</ele>
<time>2026-09-04T06:42:39Z</time>
</trkpt>
<trkpt lat="46.521140000" lon="-72.312340000">
<ele>0</ele>
<time>2026-09-04T06:42:40Z</time>
</trkpt>
<trkpt lat="46.521070000" lon="-72.311270000">
<ele>0</ele>
<time>2026-09-04T06:42:41Z</time>
</trkpt>
<trkpt lat="46.521010000" lon="-72.310790000">
<ele>0</ele>
<time>2026-09-04T06:42:42Z</time>
</trkpt>
<trkpt lat="46.520930000" lon="-72.310100000">
<ele>0</ele>
<time>2026-09-04T06:42:43Z</time>
</trkpt>
<trkpt lat="46.520800000" lon="-72.308870000">
<ele>0</ele>
<time>2026-09-04T06:42:44Z</time>
</trkpt>
<trkpt lat="46.520730000" lon="-72.307770000">
<ele>0</ele>
<time>2026-09-04T06:42:45Z</time>
</trkpt>
<trkpt lat="46.520530000" lon="-72.305350000">
<ele>0</ele>
<time>2026-09-04T06:42:46Z</time>
</trkpt>
<trkpt lat="46.520490000" lon="-72.305090000">
<ele>0</ele>
<time>2026-09-04T06:42:47Z</time>
</trkpt>
<trkpt lat="46.520290000" lon="-72.304230000">
<ele>0</ele>
<time>2026-09-04T06:42:48Z</time>
</trkpt>
<trkpt lat="46.520160000" lon="-72.303700000">
<ele>0</ele>
<time>2026-09-04T06:42:49Z</time>
</trkpt>
<trkpt lat="46.519820000" lon="-72.302210000">
<ele>0</ele>
<time>2026-09-04T06:42:50Z</time>
</trkpt>
<trkpt lat="46.519510000" lon="-72.300610000">
<ele>0</ele>
<time>2026-09-04T06:42:51Z</time>
</trkpt>
<trkpt lat="46.519460000" lon="-72.300360000">
<ele>0</ele>
<time>2026-09-04T06:42:52Z</time>
</trkpt>
<trkpt lat="46.519260000" lon="-72.299350000">
<ele>0</ele>
<time>2026-09-04T06:42:53Z</time>
</trkpt>
<trkpt lat="46.518700000" lon="-72.296420000">
<ele>0</ele>
<time>2026-09-04T06:42:54Z</time>
</trkpt>
<trkpt lat="46.518560000" lon="-72.295580000">
<ele>0</ele>
<time>2026-09-04T06:42:55Z</time>
</trkpt>
<trkpt lat="46.518470000" lon="-72.294620000">
<ele>0</ele>
<time>2026-09-04T06:42:56Z</time>
</trkpt>
<trkpt lat="46.518240000" lon="-72.294680000">
<ele>0</ele>
<time>2026-09-04T06:42:57Z</time>
</trkpt>
<trkpt lat="46.518240000" lon="-72.294680000">
<ele>0</ele>
<time>2026-09-04T06:42:58Z</time>
</trkpt>
<trkpt lat="46.516240000" lon="-72.295130000">
<ele>0</ele>
<time>2026-09-04T06:42:59Z</time>
</trkpt>
<trkpt lat="46.515830000" lon="-72.295200000">
<ele>0</ele>
<time>2026-09-04T06:43:00Z</time>
</trkpt>
<trkpt lat="46.515350000" lon="-72.295190000">
<ele>0</ele>
<time>2026-09-04T06:43:01Z</time>
</trkpt>
<trkpt lat="46.515200000" lon="-72.295160000">
<ele>0</ele>
<time>2026-09-04T06:43:02Z</time>
</trkpt>
<trkpt lat="46.514860000" lon="-72.295100000">
<ele>0</ele>
<time>2026-09-04T06:43:03Z</time>
</trkpt>
<trkpt lat="46.514510000" lon="-72.295020000">
<ele>0</ele>
<time>2026-09-04T06:43:04Z</time>
</trkpt>
<trkpt lat="46.513800000" lon="-72.294840000">
<ele>0</ele>
<time>2026-09-04T06:43:05Z</time>
</trkpt>
<trkpt lat="46.513620000" lon="-72.294840000">
<ele>0</ele>
<time>2026-09-04T06:43:06Z</time>
</trkpt>
<trkpt lat="46.513440000" lon="-72.294870000">
<ele>0</ele>
<time>2026-09-04T06:43:07Z</time>
</trkpt>
<trkpt lat="46.513100000" lon="-72.294970000">
<ele>0</ele>
<time>2026-09-04T06:43:08Z</time>
</trkpt>
<trkpt lat="46.512920000" lon="-72.295080000">
<ele>0</ele>
<time>2026-09-04T06:43:09Z</time>
</trkpt>
<trkpt lat="46.512260000" lon="-72.295480000">
<ele>0</ele>
<time>2026-09-04T06:43:10Z</time>
</trkpt>
<trkpt lat="46.511230000" lon="-72.296190000">
<ele>0</ele>
<time>2026-09-04T06:43:11Z</time>
</trkpt>
<trkpt lat="46.509670000" lon="-72.297300000">
<ele>0</ele>
<time>2026-09-04T06:43:12Z</time>
</trkpt>
<trkpt lat="46.507580000" lon="-72.298870000">
<ele>0</ele>
<time>2026-09-04T06:43:13Z</time>
</trkpt>
<trkpt lat="46.505980000" lon="-72.300040000">
<ele>0</ele>
<time>2026-09-04T06:43:14Z</time>
</trkpt>
<trkpt lat="46.502140000" lon="-72.302890000">
<ele>0</ele>
<time>2026-09-04T06:43:15Z</time>
</trkpt>
<trkpt lat="46.500530000" lon="-72.304060000">
<ele>0</ele>
<time>2026-09-04T06:43:16Z</time>
</trkpt>
<trkpt lat="46.499700000" lon="-72.304680000">
<ele>0</ele>
<time>2026-09-04T06:43:17Z</time>
</trkpt>
<trkpt lat="46.499070000" lon="-72.305220000">
<ele>0</ele>
<time>2026-09-04T06:43:18Z</time>
</trkpt>
<trkpt lat="46.498790000" lon="-72.305530000">
<ele>0</ele>
<time>2026-09-04T06:43:19Z</time>
</trkpt>
<trkpt lat="46.498530000" lon="-72.305880000">
<ele>0</ele>
<time>2026-09-04T06:43:20Z</time>
</trkpt>
<trkpt lat="46.498320000" lon="-72.306190000">
<ele>0</ele>
<time>2026-09-04T06:43:21Z</time>
</trkpt>
<trkpt lat="46.498110000" lon="-72.306510000">
<ele>0</ele>
<time>2026-09-04T06:43:22Z</time>
</trkpt>
<trkpt lat="46.497800000" lon="-72.307000000">
<ele>0</ele>
<time>2026-09-04T06:43:23Z</time>
</trkpt>
<trkpt lat="46.497440000" lon="-72.307550000">
<ele>0</ele>
<time>2026-09-04T06:43:24Z</time>
</trkpt>
<trkpt lat="46.494040000" lon="-72.312580000">
<ele>0</ele>
<time>2026-09-04T06:43:25Z</time>
</trkpt>
<trkpt lat="46.492910000" lon="-72.314260000">
<ele>0</ele>
<time>2026-09-04T06:43:26Z</time>
</trkpt>
<trkpt lat="46.492680000" lon="-72.314670000">
<ele>0</ele>
<time>2026-09-04T06:43:27Z</time>
</trkpt>
<trkpt lat="46.492190000" lon="-72.315760000">
<ele>0</ele>
<time>2026-09-04T06:43:28Z</time>
</trkpt>
<trkpt lat="46.491040000" lon="-72.318420000">
<ele>0</ele>
<time>2026-09-04T06:43:29Z</time>
</trkpt>
<trkpt lat="46.490370000" lon="-72.319910000">
<ele>0</ele>
<time>2026-09-04T06:43:30Z</time>
</trkpt>
<trkpt lat="46.489470000" lon="-72.321260000">
<ele>0</ele>
<time>2026-09-04T06:43:31Z</time>
</trkpt>
<trkpt lat="46.488340000" lon="-72.322940000">
<ele>0</ele>
<time>2026-09-04T06:43:32Z</time>
</trkpt>
<trkpt lat="46.488220000" lon="-72.323160000">
<ele>0</ele>
<time>2026-09-04T06:43:33Z</time>
</trkpt>
<trkpt lat="46.488120000" lon="-72.323450000">
<ele>0</ele>
<time>2026-09-04T06:43:34Z</time>
</trkpt>
<trkpt lat="46.488050000" lon="-72.324000000">
<ele>0</ele>
<time>2026-09-04T06:43:35Z</time>
</trkpt>
<trkpt lat="46.488060000" lon="-72.324270000">
<ele>0</ele>
<time>2026-09-04T06:43:36Z</time>
</trkpt>
<trkpt lat="46.488100000" lon="-72.324550000">
<ele>0</ele>
<time>2026-09-04T06:43:37Z</time>
</trkpt>
<trkpt lat="46.488220000" lon="-72.325050000">
<ele>0</ele>
<time>2026-09-04T06:43:38Z</time>
</trkpt>
<trkpt lat="46.488080000" lon="-72.325120000">
<ele>0</ele>
<time>2026-09-04T06:43:39Z</time>
</trkpt>
<trkpt lat="46.488080000" lon="-72.325120000">
<ele>0</ele>
<time>2026-09-04T06:43:40Z</time>
</trkpt>
<trkpt lat="46.486880000" lon="-72.325740000">
<ele>0</ele>
<time>2026-09-04T06:43:41Z</time>
</trkpt>
<trkpt lat="46.486640000" lon="-72.325830000">
<ele>0</ele>
<time>2026-09-04T06:43:42Z</time>
</trkpt>
<trkpt lat="46.486360000" lon="-72.325900000">
<ele>0</ele>
<time>2026-09-04T06:43:43Z</time>
</trkpt>
<trkpt lat="46.486120000" lon="-72.325910000">
<ele>0</ele>
<time>2026-09-04T06:43:44Z</time>
</trkpt>
<trkpt lat="46.485830000" lon="-72.325880000">
<ele>0</ele>
<time>2026-09-04T06:43:45Z</time>
</trkpt>
<trkpt lat="46.485400000" lon="-72.325710000">
<ele>0</ele>
<time>2026-09-04T06:43:46Z</time>
</trkpt>
<trkpt lat="46.484570000" lon="-72.325210000">
<ele>0</ele>
<time>2026-09-04T06:43:47Z</time>
</trkpt>
<trkpt lat="46.482550000" lon="-72.323930000">
<ele>0</ele>
<time>2026-09-04T06:43:48Z</time>
</trkpt>
<trkpt lat="46.482360000" lon="-72.323820000">
<ele>0</ele>
<time>2026-09-04T06:43:49Z</time>
</trkpt>
<trkpt lat="46.482160000" lon="-72.323750000">
<ele>0</ele>
<time>2026-09-04T06:43:50Z</time>
</trkpt>
<trkpt lat="46.481780000" lon="-72.323650000">
<ele>0</ele>
<time>2026-09-04T06:43:51Z</time>
</trkpt>
<trkpt lat="46.481280000" lon="-72.323710000">
<ele>0</ele>
<time>2026-09-04T06:43:52Z</time>
</trkpt>
<trkpt lat="46.480430000" lon="-72.323960000">
<ele>0</ele>
<time>2026-09-04T06:43:53Z</time>
</trkpt>
<trkpt lat="46.478630000" lon="-72.324500000">
<ele>0</ele>
<time>2026-09-04T06:43:54Z</time>
</trkpt>
<trkpt lat="46.478340000" lon="-72.324590000">
<ele>0</ele>
<time>2026-09-04T06:43:55Z</time>
</trkpt>
<trkpt lat="46.477860000" lon="-72.324660000">
<ele>0</ele>
<time>2026-09-04T06:43:56Z</time>
</trkpt>
<trkpt lat="46.477450000" lon="-72.324640000">
<ele>0</ele>
<time>2026-09-04T06:43:57Z</time>
</trkpt>
<trkpt lat="46.477140000" lon="-72.324580000">
<ele>0</ele>
<time>2026-09-04T06:43:58Z</time>
</trkpt>
<trkpt lat="46.476760000" lon="-72.324460000">
<ele>0</ele>
<time>2026-09-04T06:43:59Z</time>
</trkpt>
<trkpt lat="46.476180000" lon="-72.324280000">
<ele>0</ele>
<time>2026-09-04T06:44:00Z</time>
</trkpt>
<trkpt lat="46.475740000" lon="-72.324220000">
<ele>0</ele>
<time>2026-09-04T06:44:01Z</time>
</trkpt>
<trkpt lat="46.475230000" lon="-72.324240000">
<ele>0</ele>
<time>2026-09-04T06:44:02Z</time>
</trkpt>
<trkpt lat="46.475050000" lon="-72.324260000">
<ele>0</ele>
<time>2026-09-04T06:44:03Z</time>
</trkpt>
<trkpt lat="46.474870000" lon="-72.324290000">
<ele>0</ele>
<time>2026-09-04T06:44:04Z</time>
</trkpt>
<trkpt lat="46.474340000" lon="-72.324390000">
<ele>0</ele>
<time>2026-09-04T06:44:05Z</time>
</trkpt>
<trkpt lat="46.473450000" lon="-72.324570000">
<ele>0</ele>
<time>2026-09-04T06:44:06Z</time>
</trkpt>
<trkpt lat="46.473300000" lon="-72.324610000">
<ele>0</ele>
<time>2026-09-04T06:44:07Z</time>
</trkpt>
<trkpt lat="46.473300000" lon="-72.324610000">
<ele>0</ele>
<time>2026-09-04T06:44:08Z</time>
</trkpt>
<trkpt lat="46.473100000" lon="-72.324660000">
<ele>0</ele>
<time>2026-09-04T06:44:09Z</time>
</trkpt>
<trkpt lat="46.472800000" lon="-72.324820000">
<ele>0</ele>
<time>2026-09-04T06:44:10Z</time>
</trkpt>
<trkpt lat="46.472560000" lon="-72.325000000">
<ele>0</ele>
<time>2026-09-04T06:44:11Z</time>
</trkpt>
<trkpt lat="46.472330000" lon="-72.325270000">
<ele>0</ele>
<time>2026-09-04T06:44:12Z</time>
</trkpt>
<trkpt lat="46.472050000" lon="-72.325750000">
<ele>0</ele>
<time>2026-09-04T06:44:13Z</time>
</trkpt>
<trkpt lat="46.471580000" lon="-72.326760000">
<ele>0</ele>
<time>2026-09-04T06:44:14Z</time>
</trkpt>
<trkpt lat="46.471430000" lon="-72.327060000">
<ele>0</ele>
<time>2026-09-04T06:44:15Z</time>
</trkpt>
<trkpt lat="46.471240000" lon="-72.327370000">
<ele>0</ele>
<time>2026-09-04T06:44:16Z</time>
</trkpt>
<trkpt lat="46.470890000" lon="-72.327840000">
<ele>0</ele>
<time>2026-09-04T06:44:17Z</time>
</trkpt>
<trkpt lat="46.470560000" lon="-72.328230000">
<ele>0</ele>
<time>2026-09-04T06:44:18Z</time>
</trkpt>
<trkpt lat="46.469880000" lon="-72.329070000">
<ele>0</ele>
<time>2026-09-04T06:44:19Z</time>
</trkpt>
<trkpt lat="46.469620000" lon="-72.329440000">
<ele>0</ele>
<time>2026-09-04T06:44:20Z</time>
</trkpt>
<trkpt lat="46.469120000" lon="-72.330200000">
<ele>0</ele>
<time>2026-09-04T06:44:21Z</time>
</trkpt>
<trkpt lat="46.469000000" lon="-72.330390000">
<ele>0</ele>
<time>2026-09-04T06:44:22Z</time>
</trkpt>
<trkpt lat="46.468620000" lon="-72.330940000">
<ele>0</ele>
<time>2026-09-04T06:44:23Z</time>
</trkpt>
<trkpt lat="46.468480000" lon="-72.331110000">
<ele>0</ele>
<time>2026-09-04T06:44:24Z</time>
</trkpt>
<trkpt lat="46.468280000" lon="-72.331340000">
<ele>0</ele>
<time>2026-09-04T06:44:25Z</time>
</trkpt>
<trkpt lat="46.467910000" lon="-72.331740000">
<ele>0</ele>
<time>2026-09-04T06:44:26Z</time>
</trkpt>
<trkpt lat="46.467320000" lon="-72.332330000">
<ele>0</ele>
<time>2026-09-04T06:44:27Z</time>
</trkpt>
<trkpt lat="46.466970000" lon="-72.332570000">
<ele>0</ele>
<time>2026-09-04T06:44:28Z</time>
</trkpt>
<trkpt lat="46.466830000" lon="-72.332660000">
<ele>0</ele>
<time>2026-09-04T06:44:29Z</time>
</trkpt>
<trkpt lat="46.466670000" lon="-72.332730000">
<ele>0</ele>
<time>2026-09-04T06:44:30Z</time>
</trkpt>
<trkpt lat="46.466390000" lon="-72.332790000">
<ele>0</ele>
<time>2026-09-04T06:44:31Z</time>
</trkpt>
<trkpt lat="46.465940000" lon="-72.332820000">
<ele>0</ele>
<time>2026-09-04T06:44:32Z</time>
</trkpt>
<trkpt lat="46.465930000" lon="-72.332820000">
<ele>0</ele>
<time>2026-09-04T06:44:33Z</time>
</trkpt>
<trkpt lat="46.464480000" lon="-72.332810000">
<ele>0</ele>
<time>2026-09-04T06:44:34Z</time>
</trkpt>
<trkpt lat="46.464120000" lon="-72.332800000">
<ele>0</ele>
<time>2026-09-04T06:44:35Z</time>
</trkpt>
<trkpt lat="46.463840000" lon="-72.332820000">
<ele>0</ele>
<time>2026-09-04T06:44:36Z</time>
</trkpt>
<trkpt lat="46.463170000" lon="-72.332860000">
<ele>0</ele>
<time>2026-09-04T06:44:37Z</time>
</trkpt>
<trkpt lat="46.462680000" lon="-72.332890000">
<ele>0</ele>
<time>2026-09-04T06:44:38Z</time>
</trkpt>
<trkpt lat="46.462450000" lon="-72.332880000">
<ele>0</ele>
<time>2026-09-04T06:44:39Z</time>
</trkpt>
<trkpt lat="46.462070000" lon="-72.332830000">
<ele>0</ele>
<time>2026-09-04T06:44:40Z</time>
</trkpt>
<trkpt lat="46.461710000" lon="-72.332710000">
<ele>0</ele>
<time>2026-09-04T06:44:41Z</time>
</trkpt>
<trkpt lat="46.461400000" lon="-72.332550000">
<ele>0</ele>
<time>2026-09-04T06:44:42Z</time>
</trkpt>
<trkpt lat="46.461080000" lon="-72.332320000">
<ele>0</ele>
<time>2026-09-04T06:44:43Z</time>
</trkpt>
<trkpt lat="46.460870000" lon="-72.332140000">
<ele>0</ele>
<time>2026-09-04T06:44:44Z</time>
</trkpt>
<trkpt lat="46.460640000" lon="-72.331870000">
<ele>0</ele>
<time>2026-09-04T06:44:45Z</time>
</trkpt>
<trkpt lat="46.459680000" lon="-72.330650000">
<ele>0</ele>
<time>2026-09-04T06:44:46Z</time>
</trkpt>
<trkpt lat="46.459010000" lon="-72.329780000">
<ele>0</ele>
<time>2026-09-04T06:44:47Z</time>
</trkpt>
<trkpt lat="46.457970000" lon="-72.328430000">
<ele>0</ele>
<time>2026-09-04T06:44:48Z</time>
</trkpt>
<trkpt lat="46.457970000" lon="-72.328430000">
<ele>0</ele>
<time>2026-09-04T06:44:49Z</time>
</trkpt>
<trkpt lat="46.456780000" lon="-72.326830000">
<ele>0</ele>
<time>2026-09-04T06:44:50Z</time>
</trkpt>
<trkpt lat="46.452990000" lon="-72.321460000">
<ele>0</ele>
<time>2026-09-04T06:44:51Z</time>
</trkpt>
<trkpt lat="46.451230000" lon="-72.318970000">
<ele>0</ele>
<time>2026-09-04T06:44:52Z</time>
</trkpt>
<trkpt lat="46.445990000" lon="-72.311820000">
<ele>0</ele>
<time>2026-09-04T06:44:53Z</time>
</trkpt>
<trkpt lat="46.444980000" lon="-72.310480000">
<ele>0</ele>
<time>2026-09-04T06:44:54Z</time>
</trkpt>
<trkpt lat="46.444730000" lon="-72.310200000">
<ele>0</ele>
<time>2026-09-04T06:44:55Z</time>
</trkpt>
<trkpt lat="46.444510000" lon="-72.310040000">
<ele>0</ele>
<time>2026-09-04T06:44:56Z</time>
</trkpt>
<trkpt lat="46.444350000" lon="-72.309980000">
<ele>0</ele>
<time>2026-09-04T06:44:57Z</time>
</trkpt>
<trkpt lat="46.444300000" lon="-72.310300000">
<ele>0</ele>
<time>2026-09-04T06:44:58Z</time>
</trkpt>
<trkpt lat="46.444300000" lon="-72.310310000">
<ele>0</ele>
<time>2026-09-04T06:44:59Z</time>
</trkpt>
<trkpt lat="46.444300000" lon="-72.310310000">
<ele>0</ele>
<time>2026-09-04T06:45:00Z</time>
</trkpt>
<trkpt lat="46.443900000" lon="-72.313010000">
<ele>0</ele>
<time>2026-09-04T06:45:01Z</time>
</trkpt>
<trkpt lat="46.443460000" lon="-72.315990000">
<ele>0</ele>
<time>2026-09-04T06:45:02Z</time>
</trkpt>
<trkpt lat="46.443140000" lon="-72.318280000">
<ele>0</ele>
<time>2026-09-04T06:45:03Z</time>
</trkpt>
<trkpt lat="46.443020000" lon="-72.319390000">
<ele>0</ele>
<time>2026-09-04T06:45:04Z</time>
</trkpt>
<trkpt lat="46.442940000" lon="-72.320350000">
<ele>0</ele>
<time>2026-09-04T06:45:05Z</time>
</trkpt>
<trkpt lat="46.442860000" lon="-72.322090000">
<ele>0</ele>
<time>2026-09-04T06:45:06Z</time>
</trkpt>
<trkpt lat="46.442750000" lon="-72.324710000">
<ele>0</ele>
<time>2026-09-04T06:45:07Z</time>
</trkpt>
<trkpt lat="46.442650000" lon="-72.326000000">
<ele>0</ele>
<time>2026-09-04T06:45:08Z</time>
</trkpt>
<trkpt lat="46.442350000" lon="-72.328290000">
<ele>0</ele>
<time>2026-09-04T06:45:09Z</time>
</trkpt>
<trkpt lat="46.442230000" lon="-72.329580000">
<ele>0</ele>
<time>2026-09-04T06:45:10Z</time>
</trkpt>
<trkpt lat="46.442200000" lon="-72.330160000">
<ele>0</ele>
<time>2026-09-04T06:45:11Z</time>
</trkpt>
<trkpt lat="46.442160000" lon="-72.330910000">
<ele>0</ele>
<time>2026-09-04T06:45:12Z</time>
</trkpt>
<trkpt lat="46.442150000" lon="-72.331880000">
<ele>0</ele>
<time>2026-09-04T06:45:13Z</time>
</trkpt>
<trkpt lat="46.442130000" lon="-72.332850000">
<ele>0</ele>
<time>2026-09-04T06:45:14Z</time>
</trkpt>
<trkpt lat="46.442080000" lon="-72.333980000">
<ele>0</ele>
<time>2026-09-04T06:45:15Z</time>
</trkpt>
<trkpt lat="46.442010000" lon="-72.334760000">
<ele>0</ele>
<time>2026-09-04T06:45:16Z</time>
</trkpt>
<trkpt lat="46.441930000" lon="-72.335760000">
<ele>0</ele>
<time>2026-09-04T06:45:17Z</time>
</trkpt>
<trkpt lat="46.441920000" lon="-72.336140000">
<ele>0</ele>
<time>2026-09-04T06:45:18Z</time>
</trkpt>
<trkpt lat="46.441870000" lon="-72.336760000">
<ele>0</ele>
<time>2026-09-04T06:45:19Z</time>
</trkpt>
<trkpt lat="46.441650000" lon="-72.338240000">
<ele>0</ele>
<time>2026-09-04T06:45:20Z</time>
</trkpt>
<trkpt lat="46.441480000" lon="-72.339410000">
<ele>0</ele>
<time>2026-09-04T06:45:21Z</time>
</trkpt>
<trkpt lat="46.441290000" lon="-72.341220000">
<ele>0</ele>
<time>2026-09-04T06:45:22Z</time>
</trkpt>
<trkpt lat="46.440840000" lon="-72.345010000">
<ele>0</ele>
<time>2026-09-04T06:45:23Z</time>
</trkpt>
<trkpt lat="46.440720000" lon="-72.345700000">
<ele>0</ele>
<time>2026-09-04T06:45:24Z</time>
</trkpt>
<trkpt lat="46.440600000" lon="-72.346170000">
<ele>0</ele>
<time>2026-09-04T06:45:25Z</time>
</trkpt>
<trkpt lat="46.440500000" lon="-72.346490000">
<ele>0</ele>
<time>2026-09-04T06:45:26Z</time>
</trkpt>
<trkpt lat="46.440270000" lon="-72.347100000">
<ele>0</ele>
<time>2026-09-04T06:45:27Z</time>
</trkpt>
<trkpt lat="46.439980000" lon="-72.347810000">
<ele>0</ele>
<time>2026-09-04T06:45:28Z</time>
</trkpt>
<trkpt lat="46.439690000" lon="-72.348540000">
<ele>0</ele>
<time>2026-09-04T06:45:29Z</time>
</trkpt>
<trkpt lat="46.439290000" lon="-72.349450000">
<ele>0</ele>
<time>2026-09-04T06:45:30Z</time>
</trkpt>
<trkpt lat="46.439020000" lon="-72.349950000">
<ele>0</ele>
<time>2026-09-04T06:45:31Z</time>
</trkpt>
<trkpt lat="46.438360000" lon="-72.350940000">
<ele>0</ele>
<time>2026-09-04T06:45:32Z</time>
</trkpt>
<trkpt lat="46.438040000" lon="-72.351490000">
<ele>0</ele>
<time>2026-09-04T06:45:33Z</time>
</trkpt>
<trkpt lat="46.437780000" lon="-72.351990000">
<ele>0</ele>
<time>2026-09-04T06:45:34Z</time>
</trkpt>
<trkpt lat="46.437650000" lon="-72.352300000">
<ele>0</ele>
<time>2026-09-04T06:45:35Z</time>
</trkpt>
<trkpt lat="46.437410000" lon="-72.352890000">
<ele>0</ele>
<time>2026-09-04T06:45:36Z</time>
</trkpt>
<trkpt lat="46.437280000" lon="-72.353290000">
<ele>0</ele>
<time>2026-09-04T06:45:37Z</time>
</trkpt>
<trkpt lat="46.437280000" lon="-72.353290000">
<ele>0</ele>
<time>2026-09-04T06:45:38Z</time>
</trkpt>
<trkpt lat="46.436980000" lon="-72.354190000">
<ele>0</ele>
<time>2026-09-04T06:45:39Z</time>
</trkpt>
<trkpt lat="46.436770000" lon="-72.354760000">
<ele>0</ele>
<time>2026-09-04T06:45:40Z</time>
</trkpt>
<trkpt lat="46.436600000" lon="-72.355170000">
<ele>0</ele>
<time>2026-09-04T06:45:41Z</time>
</trkpt>
<trkpt lat="46.436420000" lon="-72.355550000">
<ele>0</ele>
<time>2026-09-04T06:45:42Z</time>
</trkpt>
<trkpt lat="46.435500000" lon="-72.357360000">
<ele>0</ele>
<time>2026-09-04T06:45:43Z</time>
</trkpt>
<trkpt lat="46.434150000" lon="-72.359920000">
<ele>0</ele>
<time>2026-09-04T06:45:44Z</time>
</trkpt>
<trkpt lat="46.433400000" lon="-72.361300000">
<ele>0</ele>
<time>2026-09-04T06:45:45Z</time>
</trkpt>
<trkpt lat="46.433010000" lon="-72.362080000">
<ele>0</ele>
<time>2026-09-04T06:45:46Z</time>
</trkpt>
<trkpt lat="46.432760000" lon="-72.362650000">
<ele>0</ele>
<time>2026-09-04T06:45:47Z</time>
</trkpt>
<trkpt lat="46.432600000" lon="-72.363010000">
<ele>0</ele>
<time>2026-09-04T06:45:48Z</time>
</trkpt>
<trkpt lat="46.432080000" lon="-72.364220000">
<ele>0</ele>
<time>2026-09-04T06:45:49Z</time>
</trkpt>
<trkpt lat="46.431790000" lon="-72.364840000">
<ele>0</ele>
<time>2026-09-04T06:45:50Z</time>
</trkpt>
<trkpt lat="46.431540000" lon="-72.365300000">
<ele>0</ele>
<time>2026-09-04T06:45:51Z</time>
</trkpt>
<trkpt lat="46.431120000" lon="-72.365980000">
<ele>0</ele>
<time>2026-09-04T06:45:52Z</time>
</trkpt>
<trkpt lat="46.430470000" lon="-72.366960000">
<ele>0</ele>
<time>2026-09-04T06:45:53Z</time>
</trkpt>
<trkpt lat="46.429910000" lon="-72.367800000">
<ele>0</ele>
<time>2026-09-04T06:45:54Z</time>
</trkpt>
<trkpt lat="46.429150000" lon="-72.368920000">
<ele>0</ele>
<time>2026-09-04T06:45:55Z</time>
</trkpt>
<trkpt lat="46.428780000" lon="-72.369480000">
<ele>0</ele>
<time>2026-09-04T06:45:56Z</time>
</trkpt>
<trkpt lat="46.428160000" lon="-72.370430000">
<ele>0</ele>
<time>2026-09-04T06:45:57Z</time>
</trkpt>
<trkpt lat="46.427110000" lon="-72.372290000">
<ele>0</ele>
<time>2026-09-04T06:45:58Z</time>
</trkpt>
<trkpt lat="46.426540000" lon="-72.373360000">
<ele>0</ele>
<time>2026-09-04T06:45:59Z</time>
</trkpt>
<trkpt lat="46.425910000" lon="-72.374550000">
<ele>0</ele>
<time>2026-09-04T06:46:00Z</time>
</trkpt>
<trkpt lat="46.425540000" lon="-72.375150000">
<ele>0</ele>
<time>2026-09-04T06:46:01Z</time>
</trkpt>
<trkpt lat="46.425380000" lon="-72.375540000">
<ele>0</ele>
<time>2026-09-04T06:46:02Z</time>
</trkpt>
<trkpt lat="46.424660000" lon="-72.376890000">
<ele>0</ele>
<time>2026-09-04T06:46:03Z</time>
</trkpt>
<trkpt lat="46.424220000" lon="-72.377700000">
<ele>0</ele>
<time>2026-09-04T06:46:04Z</time>
</trkpt>
<trkpt lat="46.421870000" lon="-72.382110000">
<ele>0</ele>
<time>2026-09-04T06:46:05Z</time>
</trkpt>
<trkpt lat="46.421450000" lon="-72.382940000">
<ele>0</ele>
<time>2026-09-04T06:46:06Z</time>
</trkpt>
<trkpt lat="46.421450000" lon="-72.382940000">
<ele>0</ele>
<time>2026-09-04T06:46:07Z</time>
</trkpt>
<trkpt lat="46.420910000" lon="-72.384100000">
<ele>0</ele>
<time>2026-09-04T06:46:08Z</time>
</trkpt>
<trkpt lat="46.420520000" lon="-72.385010000">
<ele>0</ele>
<time>2026-09-04T06:46:09Z</time>
</trkpt>
<trkpt lat="46.420020000" lon="-72.386280000">
<ele>0</ele>
<time>2026-09-04T06:46:10Z</time>
</trkpt>
<trkpt lat="46.419870000" lon="-72.386670000">
<ele>0</ele>
<time>2026-09-04T06:46:11Z</time>
</trkpt>
<trkpt lat="46.419760000" lon="-72.386900000">
<ele>0</ele>
<time>2026-09-04T06:46:12Z</time>
</trkpt>
<trkpt lat="46.418930000" lon="-72.389030000">
<ele>0</ele>
<time>2026-09-04T06:46:13Z</time>
</trkpt>
<trkpt lat="46.418470000" lon="-72.390170000">
<ele>0</ele>
<time>2026-09-04T06:46:14Z</time>
</trkpt>
<trkpt lat="46.418020000" lon="-72.391160000">
<ele>0</ele>
<time>2026-09-04T06:46:15Z</time>
</trkpt>
<trkpt lat="46.417300000" lon="-72.392610000">
<ele>0</ele>
<time>2026-09-04T06:46:16Z</time>
</trkpt>
<trkpt lat="46.416440000" lon="-72.394410000">
<ele>0</ele>
<time>2026-09-04T06:46:17Z</time>
</trkpt>
<trkpt lat="46.415950000" lon="-72.395590000">
<ele>0</ele>
<time>2026-09-04T06:46:18Z</time>
</trkpt>
<trkpt lat="46.415030000" lon="-72.397970000">
<ele>0</ele>
<time>2026-09-04T06:46:19Z</time>
</trkpt>
<trkpt lat="46.414860000" lon="-72.398470000">
<ele>0</ele>
<time>2026-09-04T06:46:20Z</time>
</trkpt>
<trkpt lat="46.414670000" lon="-72.399110000">
<ele>0</ele>
<time>2026-09-04T06:46:21Z</time>
</trkpt>
<trkpt lat="46.414230000" lon="-72.400890000">
<ele>0</ele>
<time>2026-09-04T06:46:22Z</time>
</trkpt>
<trkpt lat="46.413720000" lon="-72.403150000">
<ele>0</ele>
<time>2026-09-04T06:46:23Z</time>
</trkpt>
<trkpt lat="46.413500000" lon="-72.404310000">
<ele>0</ele>
<time>2026-09-04T06:46:24Z</time>
</trkpt>
<trkpt lat="46.413390000" lon="-72.405350000">
<ele>0</ele>
<time>2026-09-04T06:46:25Z</time>
</trkpt>
<trkpt lat="46.413160000" lon="-72.409050000">
<ele>0</ele>
<time>2026-09-04T06:46:26Z</time>
</trkpt>
<trkpt lat="46.412690000" lon="-72.416470000">
<ele>0</ele>
<time>2026-09-04T06:46:27Z</time>
</trkpt>
<trkpt lat="46.412610000" lon="-72.417060000">
<ele>0</ele>
<time>2026-09-04T06:46:28Z</time>
</trkpt>
<trkpt lat="46.412510000" lon="-72.417540000">
<ele>0</ele>
<time>2026-09-04T06:46:29Z</time>
</trkpt>
<trkpt lat="46.412340000" lon="-72.418100000">
<ele>0</ele>
<time>2026-09-04T06:46:30Z</time>
</trkpt>
<trkpt lat="46.412140000" lon="-72.418550000">
<ele>0</ele>
<time>2026-09-04T06:46:31Z</time>
</trkpt>
<trkpt lat="46.411850000" lon="-72.419060000">
<ele>0</ele>
<time>2026-09-04T06:46:32Z</time>
</trkpt>
<trkpt lat="46.410980000" lon="-72.420470000">
<ele>0</ele>
<time>2026-09-04T06:46:33Z</time>
</trkpt>
<trkpt lat="46.410340000" lon="-72.421590000">
<ele>0</ele>
<time>2026-09-04T06:46:34Z</time>
</trkpt>
<trkpt lat="46.409860000" lon="-72.422540000">
<ele>0</ele>
<time>2026-09-04T06:46:35Z</time>
</trkpt>
<trkpt lat="46.408820000" lon="-72.424770000">
<ele>0</ele>
<time>2026-09-04T06:46:36Z</time>
</trkpt>
<trkpt lat="46.407980000" lon="-72.426660000">
<ele>0</ele>
<time>2026-09-04T06:46:37Z</time>
</trkpt>
<trkpt lat="46.406800000" lon="-72.429530000">
<ele>0</ele>
<time>2026-09-04T06:46:38Z</time>
</trkpt>
<trkpt lat="46.406530000" lon="-72.430210000">
<ele>0</ele>
<time>2026-09-04T06:46:39Z</time>
</trkpt>
<trkpt lat="46.406120000" lon="-72.431150000">
<ele>0</ele>
<time>2026-09-04T06:46:40Z</time>
</trkpt>
<trkpt lat="46.405860000" lon="-72.431660000">
<ele>0</ele>
<time>2026-09-04T06:46:41Z</time>
</trkpt>
<trkpt lat="46.403950000" lon="-72.435010000">
<ele>0</ele>
<time>2026-09-04T06:46:42Z</time>
</trkpt>
<trkpt lat="46.403540000" lon="-72.435690000">
<ele>0</ele>
<time>2026-09-04T06:46:43Z</time>
</trkpt>
<trkpt lat="46.402990000" lon="-72.436440000">
<ele>0</ele>
<time>2026-09-04T06:46:44Z</time>
</trkpt>
<trkpt lat="46.400570000" lon="-72.439200000">
<ele>0</ele>
<time>2026-09-04T06:46:45Z</time>
</trkpt>
<trkpt lat="46.400000000" lon="-72.439980000">
<ele>0</ele>
<time>2026-09-04T06:46:46Z</time>
</trkpt>
<trkpt lat="46.399620000" lon="-72.440570000">
<ele>0</ele>
<time>2026-09-04T06:46:47Z</time>
</trkpt>
<trkpt lat="46.398320000" lon="-72.442930000">
<ele>0</ele>
<time>2026-09-04T06:46:48Z</time>
</trkpt>
<trkpt lat="46.397840000" lon="-72.443830000">
<ele>0</ele>
<time>2026-09-04T06:46:49Z</time>
</trkpt>
<trkpt lat="46.397650000" lon="-72.444230000">
<ele>0</ele>
<time>2026-09-04T06:46:50Z</time>
</trkpt>
<trkpt lat="46.397390000" lon="-72.444830000">
<ele>0</ele>
<time>2026-09-04T06:46:51Z</time>
</trkpt>
<trkpt lat="46.397000000" lon="-72.445960000">
<ele>0</ele>
<time>2026-09-04T06:46:52Z</time>
</trkpt>
<trkpt lat="46.396800000" lon="-72.446660000">
<ele>0</ele>
<time>2026-09-04T06:46:53Z</time>
</trkpt>
<trkpt lat="46.396800000" lon="-72.446660000">
<ele>0</ele>
<time>2026-09-04T06:46:54Z</time>
</trkpt>
<trkpt lat="46.396620000" lon="-72.447360000">
<ele>0</ele>
<time>2026-09-04T06:46:55Z</time>
</trkpt>
<trkpt lat="46.396320000" lon="-72.448880000">
<ele>0</ele>
<time>2026-09-04T06:46:56Z</time>
</trkpt>
<trkpt lat="46.395920000" lon="-72.451320000">
<ele>0</ele>
<time>2026-09-04T06:46:57Z</time>
</trkpt>
<trkpt lat="46.395830000" lon="-72.451830000">
<ele>0</ele>
<time>2026-09-04T06:46:58Z</time>
</trkpt>
<trkpt lat="46.395470000" lon="-72.454030000">
<ele>0</ele>
<time>2026-09-04T06:46:59Z</time>
</trkpt>
<trkpt lat="46.395260000" lon="-72.455270000">
<ele>0</ele>
<time>2026-09-04T06:47:00Z</time>
</trkpt>
<trkpt lat="46.395200000" lon="-72.455950000">
<ele>0</ele>
<time>2026-09-04T06:47:01Z</time>
</trkpt>
<trkpt lat="46.395180000" lon="-72.456340000">
<ele>0</ele>
<time>2026-09-04T06:47:02Z</time>
</trkpt>
<trkpt lat="46.395200000" lon="-72.459300000">
<ele>0</ele>
<time>2026-09-04T06:47:03Z</time>
</trkpt>
<trkpt lat="46.395170000" lon="-72.459990000">
<ele>0</ele>
<time>2026-09-04T06:47:04Z</time>
</trkpt>
<trkpt lat="46.395130000" lon="-72.460340000">
<ele>0</ele>
<time>2026-09-04T06:47:05Z</time>
</trkpt>
<trkpt lat="46.394990000" lon="-72.461080000">
<ele>0</ele>
<time>2026-09-04T06:47:06Z</time>
</trkpt>
<trkpt lat="46.394660000" lon="-72.462820000">
<ele>0</ele>
<time>2026-09-04T06:47:07Z</time>
</trkpt>
<trkpt lat="46.394350000" lon="-72.464110000">
<ele>0</ele>
<time>2026-09-04T06:47:08Z</time>
</trkpt>
<trkpt lat="46.394190000" lon="-72.464620000">
<ele>0</ele>
<time>2026-09-04T06:47:09Z</time>
</trkpt>
<trkpt lat="46.393990000" lon="-72.465120000">
<ele>0</ele>
<time>2026-09-04T06:47:10Z</time>
</trkpt>
<trkpt lat="46.393790000" lon="-72.465570000">
<ele>0</ele>
<time>2026-09-04T06:47:11Z</time>
</trkpt>
<trkpt lat="46.393410000" lon="-72.466220000">
<ele>0</ele>
<time>2026-09-04T06:47:12Z</time>
</trkpt>
<trkpt lat="46.392590000" lon="-72.467540000">
<ele>0</ele>
<time>2026-09-04T06:47:13Z</time>
</trkpt>
<trkpt lat="46.390470000" lon="-72.470830000">
<ele>0</ele>
<time>2026-09-04T06:47:14Z</time>
</trkpt>
<trkpt lat="46.390240000" lon="-72.471190000">
<ele>0</ele>
<time>2026-09-04T06:47:15Z</time>
</trkpt>
<trkpt lat="46.389590000" lon="-72.472200000">
<ele>0</ele>
<time>2026-09-04T06:47:16Z</time>
</trkpt>
<trkpt lat="46.388590000" lon="-72.473840000">
<ele>0</ele>
<time>2026-09-04T06:47:17Z</time>
</trkpt>
<trkpt lat="46.386200000" lon="-72.477880000">
<ele>0</ele>
<time>2026-09-04T06:47:18Z</time>
</trkpt>
<trkpt lat="46.385380000" lon="-72.479240000">
<ele>0</ele>
<time>2026-09-04T06:47:19Z</time>
</trkpt>
<trkpt lat="46.382950000" lon="-72.483330000">
<ele>0</ele>
<time>2026-09-04T06:47:20Z</time>
</trkpt>
<trkpt lat="46.382470000" lon="-72.484150000">
<ele>0</ele>
<time>2026-09-04T06:47:21Z</time>
</trkpt>
<trkpt lat="46.382470000" lon="-72.484150000">
<ele>0</ele>
<time>2026-09-04T06:47:22Z</time>
</trkpt>
<trkpt lat="46.381700000" lon="-72.485460000">
<ele>0</ele>
<time>2026-09-04T06:47:23Z</time>
</trkpt>
<trkpt lat="46.380920000" lon="-72.486780000">
<ele>0</ele>
<time>2026-09-04T06:47:24Z</time>
</trkpt>
<trkpt lat="46.380740000" lon="-72.487050000">
<ele>0</ele>
<time>2026-09-04T06:47:25Z</time>
</trkpt>
<trkpt lat="46.380100000" lon="-72.487870000">
<ele>0</ele>
<time>2026-09-04T06:47:26Z</time>
</trkpt>
<trkpt lat="46.378720000" lon="-72.489370000">
<ele>0</ele>
<time>2026-09-04T06:47:27Z</time>
</trkpt>
<trkpt lat="46.378720000" lon="-72.489370000">
<ele>0</ele>
<time>2026-09-04T06:47:28Z</time>
</trkpt>
<trkpt lat="46.378080000" lon="-72.490080000">
<ele>0</ele>
<time>2026-09-04T06:47:29Z</time>
</trkpt>
<trkpt lat="46.377640000" lon="-72.490590000">
<ele>0</ele>
<time>2026-09-04T06:47:30Z</time>
</trkpt>
<trkpt lat="46.377260000" lon="-72.491140000">
<ele>0</ele>
<time>2026-09-04T06:47:31Z</time>
</trkpt>
<trkpt lat="46.377120000" lon="-72.491330000">
<ele>0</ele>
<time>2026-09-04T06:47:32Z</time>
</trkpt>
<trkpt lat="46.377120000" lon="-72.491330000">
<ele>0</ele>
<time>2026-09-04T06:47:33Z</time>
</trkpt>
<trkpt lat="46.376790000" lon="-72.491810000">
<ele>0</ele>
<time>2026-09-04T06:47:34Z</time>
</trkpt>
<trkpt lat="46.377110000" lon="-72.492240000">
<ele>0</ele>
<time>2026-09-04T06:47:35Z</time>
</trkpt>
<trkpt lat="46.377110000" lon="-72.492240000">
<ele>0</ele>
<time>2026-09-04T06:47:36Z</time>
</trkpt>
<trkpt lat="46.377870000" lon="-72.493230000">
<ele>0</ele>
<time>2026-09-04T06:47:37Z</time>
</trkpt>
<trkpt lat="46.379250000" lon="-72.495230000">
<ele>0</ele>
<time>2026-09-04T06:47:38Z</time>
</trkpt>
<trkpt lat="46.382600000" lon="-72.500040000">
<ele>0</ele>
<time>2026-09-04T06:47:39Z</time>
</trkpt>
<trkpt lat="46.387200000" lon="-72.506620000">
<ele>0</ele>
<time>2026-09-04T06:47:40Z</time>
</trkpt>
<trkpt lat="46.390270000" lon="-72.511010000">
<ele>0</ele>
<time>2026-09-04T06:47:41Z</time>
</trkpt>
<trkpt lat="46.390720000" lon="-72.511650000">
<ele>0</ele>
<time>2026-09-04T06:47:42Z</time>
</trkpt>
<trkpt lat="46.390080000" lon="-72.512180000">
<ele>0</ele>
<time>2026-09-04T06:47:43Z</time>
</trkpt>
<trkpt lat="46.390080000" lon="-72.512180000">
<ele>0</ele>
<time>2026-09-04T06:47:44Z</time>
</trkpt>
<trkpt lat="46.387190000" lon="-72.514560000">
<ele>0</ele>
<time>2026-09-04T06:47:45Z</time>
</trkpt>
<trkpt lat="46.386920000" lon="-72.514780000">
<ele>0</ele>
<time>2026-09-04T06:47:46Z</time>
</trkpt>
<trkpt lat="46.386450000" lon="-72.515240000">
<ele>0</ele>
<time>2026-09-04T06:47:47Z</time>
</trkpt>
<trkpt lat="46.385980000" lon="-72.515840000">
<ele>0</ele>
<time>2026-09-04T06:47:48Z</time>
</trkpt>
<trkpt lat="46.385620000" lon="-72.516440000">
<ele>0</ele>
<time>2026-09-04T06:47:49Z</time>
</trkpt>
<trkpt lat="46.385340000" lon="-72.517180000">
<ele>0</ele>
<time>2026-09-04T06:47:50Z</time>
</trkpt>
<trkpt lat="46.385270000" lon="-72.517400000">
<ele>0</ele>
<time>2026-09-04T06:47:51Z</time>
</trkpt>
<trkpt lat="46.385050000" lon="-72.518470000">
<ele>0</ele>
<time>2026-09-04T06:47:52Z</time>
</trkpt>
<trkpt lat="46.384940000" lon="-72.518960000">
<ele>0</ele>
<time>2026-09-04T06:47:53Z</time>
</trkpt>
<trkpt lat="46.384860000" lon="-72.519230000">
<ele>0</ele>
<time>2026-09-04T06:47:54Z</time>
</trkpt>
<trkpt lat="46.384690000" lon="-72.519660000">
<ele>0</ele>
<time>2026-09-04T06:47:55Z</time>
</trkpt>
<trkpt lat="46.384710000" lon="-72.519950000">
<ele>0</ele>
<time>2026-09-04T06:47:56Z</time>
</trkpt>
<trkpt lat="46.384740000" lon="-72.520090000">
<ele>0</ele>
<time>2026-09-04T06:47:57Z</time>
</trkpt>
<trkpt lat="46.384810000" lon="-72.520290000">
<ele>0</ele>
<time>2026-09-04T06:47:58Z</time>
</trkpt>
<trkpt lat="46.384960000" lon="-72.520520000">
<ele>0</ele>
<time>2026-09-04T06:47:59Z</time>
</trkpt>
<trkpt lat="46.385150000" lon="-72.520700000">
<ele>0</ele>
<time>2026-09-04T06:48:00Z</time>
</trkpt>
<trkpt lat="46.385320000" lon="-72.520890000">
<ele>0</ele>
<time>2026-09-04T06:48:01Z</time>
</trkpt>
<trkpt lat="46.385670000" lon="-72.521370000">
<ele>0</ele>
<time>2026-09-04T06:48:02Z</time>
</trkpt>
<trkpt lat="46.385670000" lon="-72.521370000">
<ele>0</ele>
<time>2026-09-04T06:48:03Z</time>
</trkpt>
<trkpt lat="46.387250000" lon="-72.523570000">
<ele>0</ele>
<time>2026-09-04T06:48:04Z</time>
</trkpt>
<trkpt lat="46.387560000" lon="-72.523960000">
<ele>0</ele>
<time>2026-09-04T06:48:05Z</time>
</trkpt>
<trkpt lat="46.387780000" lon="-72.524150000">
<ele>0</ele>
<time>2026-09-04T06:48:06Z</time>
</trkpt>
<trkpt lat="46.387890000" lon="-72.524220000">
<ele>0</ele>
<time>2026-09-04T06:48:07Z</time>
</trkpt>
<trkpt lat="46.388220000" lon="-72.524380000">
<ele>0</ele>
<time>2026-09-04T06:48:08Z</time>
</trkpt>
<trkpt lat="46.389620000" lon="-72.524580000">
<ele>0</ele>
<time>2026-09-04T06:48:09Z</time>
</trkpt>
<trkpt lat="46.391990000" lon="-72.525080000">
<ele>0</ele>
<time>2026-09-04T06:48:10Z</time>
</trkpt>
<trkpt lat="46.392520000" lon="-72.525220000">
<ele>0</ele>
<time>2026-09-04T06:48:11Z</time>
</trkpt>
<trkpt lat="46.392800000" lon="-72.525350000">
<ele>0</ele>
<time>2026-09-04T06:48:12Z</time>
</trkpt>
<trkpt lat="46.393020000" lon="-72.525490000">
<ele>0</ele>
<time>2026-09-04T06:48:13Z</time>
</trkpt>
<trkpt lat="46.393170000" lon="-72.525610000">
<ele>0</ele>
<time>2026-09-04T06:48:14Z</time>
</trkpt>
<trkpt lat="46.393320000" lon="-72.525770000">
<ele>0</ele>
<time>2026-09-04T06:48:15Z</time>
</trkpt>
<trkpt lat="46.393660000" lon="-72.526180000">
<ele>0</ele>
<time>2026-09-04T06:48:16Z</time>
</trkpt>
<trkpt lat="46.394150000" lon="-72.526930000">
<ele>0</ele>
<time>2026-09-04T06:48:17Z</time>
</trkpt>
<trkpt lat="46.396590000" lon="-72.530520000">
<ele>0</ele>
<time>2026-09-04T06:48:18Z</time>
</trkpt>
<trkpt lat="46.398670000" lon="-72.533580000">
<ele>0</ele>
<time>2026-09-04T06:48:19Z</time>
</trkpt>
<trkpt lat="46.399000000" lon="-72.534040000">
<ele>0</ele>
<time>2026-09-04T06:48:20Z</time>
</trkpt>
<trkpt lat="46.399320000" lon="-72.534440000">
<ele>0</ele>
<time>2026-09-04T06:48:21Z</time>
</trkpt>
<trkpt lat="46.399530000" lon="-72.534020000">
<ele>0</ele>
<time>2026-09-04T06:48:22Z</time>
</trkpt>
<trkpt lat="46.399600000" lon="-72.533880000">
<ele>0</ele>
<time>2026-09-04T06:48:23Z</time>
</trkpt>
<trkpt lat="46.399600000" lon="-72.533880000">
<ele>0</ele>
<time>2026-09-04T06:48:24Z</time>
</trkpt>
<trkpt lat="46.400110000" lon="-72.532880000">
<ele>0</ele>
<time>2026-09-04T06:48:25Z</time>
</trkpt>
<trkpt lat="46.400700000" lon="-72.531970000">
<ele>0</ele>
<time>2026-09-04T06:48:26Z</time>
</trkpt>
<trkpt lat="46.401450000" lon="-72.531050000">
<ele>0</ele>
<time>2026-09-04T06:48:27Z</time>
</trkpt>
<trkpt lat="46.402220000" lon="-72.530240000">
<ele>0</ele>
<time>2026-09-04T06:48:28Z</time>
</trkpt>
<trkpt lat="46.402500000" lon="-72.529970000">
<ele>0</ele>
<time>2026-09-04T06:48:29Z</time>
</trkpt>
<trkpt lat="46.402890000" lon="-72.529610000">
<ele>0</ele>
<time>2026-09-04T06:48:30Z</time>
</trkpt>
<trkpt lat="46.403270000" lon="-72.529300000">
<ele>0</ele>
<time>2026-09-04T06:48:31Z</time>
</trkpt>
<trkpt lat="46.403660000" lon="-72.529100000">
<ele>0</ele>
<time>2026-09-04T06:48:32Z</time>
</trkpt>
<trkpt lat="46.403990000" lon="-72.528960000">
<ele>0</ele>
<time>2026-09-04T06:48:33Z</time>
</trkpt>
<trkpt lat="46.404290000" lon="-72.528930000">
<ele>0</ele>
<time>2026-09-04T06:48:34Z</time>
</trkpt>
<trkpt lat="46.406150000" lon="-72.529010000">
<ele>0</ele>
<time>2026-09-04T06:48:35Z</time>
</trkpt>
<trkpt lat="46.406830000" lon="-72.529060000">
<ele>0</ele>
<time>2026-09-04T06:48:36Z</time>
</trkpt>
<trkpt lat="46.409680000" lon="-72.529230000">
<ele>0</ele>
<time>2026-09-04T06:48:37Z</time>
</trkpt>
<trkpt lat="46.410220000" lon="-72.529270000">
<ele>0</ele>
<time>2026-09-04T06:48:38Z</time>
</trkpt>
<trkpt lat="46.411010000" lon="-72.529320000">
<ele>0</ele>
<time>2026-09-04T06:48:39Z</time>
</trkpt>
<trkpt lat="46.412790000" lon="-72.529440000">
<ele>0</ele>
<time>2026-09-04T06:48:40Z</time>
</trkpt>
<trkpt lat="46.415060000" lon="-72.529580000">
<ele>0</ele>
<time>2026-09-04T06:48:41Z</time>
</trkpt>
<trkpt lat="46.416520000" lon="-72.529700000">
<ele>0</ele>
<time>2026-09-04T06:48:42Z</time>
</trkpt>
<trkpt lat="46.417340000" lon="-72.529760000">
<ele>0</ele>
<time>2026-09-04T06:48:43Z</time>
</trkpt>
<trkpt lat="46.417660000" lon="-72.529860000">
<ele>0</ele>
<time>2026-09-04T06:48:44Z</time>
</trkpt>
<trkpt lat="46.418060000" lon="-72.530070000">
<ele>0</ele>
<time>2026-09-04T06:48:45Z</time>
</trkpt>
<trkpt lat="46.418530000" lon="-72.530370000">
<ele>0</ele>
<time>2026-09-04T06:48:46Z</time>
</trkpt>
<trkpt lat="46.418590000" lon="-72.530420000">
<ele>0</ele>
<time>2026-09-04T06:48:47Z</time>
</trkpt>
<trkpt lat="46.419200000" lon="-72.531060000">
<ele>0</ele>
<time>2026-09-04T06:48:48Z</time>
</trkpt>
<trkpt lat="46.420110000" lon="-72.532300000">
<ele>0</ele>
<time>2026-09-04T06:48:49Z</time>
</trkpt>
<trkpt lat="46.421120000" lon="-72.533710000">
<ele>0</ele>
<time>2026-09-04T06:48:50Z</time>
</trkpt>
<trkpt lat="46.423980000" lon="-72.537570000">
<ele>0</ele>
<time>2026-09-04T06:48:51Z</time>
</trkpt>
<trkpt lat="46.424750000" lon="-72.538590000">
<ele>0</ele>
<time>2026-09-04T06:48:52Z</time>
</trkpt>
<trkpt lat="46.425270000" lon="-72.539300000">
<ele>0</ele>
<time>2026-09-04T06:48:53Z</time>
</trkpt>
<trkpt lat="46.425440000" lon="-72.539550000">
<ele>0</ele>
<time>2026-09-04T06:48:54Z</time>
</trkpt>
<trkpt lat="46.425770000" lon="-72.539950000">
<ele>0</ele>
<time>2026-09-04T06:48:55Z</time>
</trkpt>
<trkpt lat="46.426560000" lon="-72.541020000">
<ele>0</ele>
<time>2026-09-04T06:48:56Z</time>
</trkpt>
<trkpt lat="46.428140000" lon="-72.543150000">
<ele>0</ele>
<time>2026-09-04T06:48:57Z</time>
</trkpt>
<trkpt lat="46.428980000" lon="-72.544300000">
<ele>0</ele>
<time>2026-09-04T06:48:58Z</time>
</trkpt>
<trkpt lat="46.428620000" lon="-72.544830000">
<ele>0</ele>
<time>2026-09-04T06:48:59Z</time>
</trkpt>
<trkpt lat="46.428620000" lon="-72.544830000">
<ele>0</ele>
<time>2026-09-04T06:49:00Z</time>
</trkpt>
<trkpt lat="46.427790000" lon="-72.546060000">
<ele>0</ele>
<time>2026-09-04T06:49:01Z</time>
</trkpt>
<trkpt lat="46.426440000" lon="-72.548050000">
<ele>0</ele>
<time>2026-09-04T06:49:02Z</time>
</trkpt>
<trkpt lat="46.425470000" lon="-72.549400000">
<ele>0</ele>
<time>2026-09-04T06:49:03Z</time>
</trkpt>
<trkpt lat="46.423930000" lon="-72.551590000">
<ele>0</ele>
<time>2026-09-04T06:49:04Z</time>
</trkpt>
<trkpt lat="46.423030000" lon="-72.552900000">
<ele>0</ele>
<time>2026-09-04T06:49:05Z</time>
</trkpt>
<trkpt lat="46.420200000" lon="-72.557080000">
<ele>0</ele>
<time>2026-09-04T06:49:06Z</time>
</trkpt>
<trkpt lat="46.420010000" lon="-72.557350000">
<ele>0</ele>
<time>2026-09-04T06:49:07Z</time>
</trkpt>
<trkpt lat="46.419740000" lon="-72.557690000">
<ele>0</ele>
<time>2026-09-04T06:49:08Z</time>
</trkpt>
<trkpt lat="46.419470000" lon="-72.558130000">
<ele>0</ele>
<time>2026-09-04T06:49:09Z</time>
</trkpt>
<trkpt lat="46.419010000" lon="-72.558750000">
<ele>0</ele>
<time>2026-09-04T06:49:10Z</time>
</trkpt>
<trkpt lat="46.418500000" lon="-72.559490000">
<ele>0</ele>
<time>2026-09-04T06:49:11Z</time>
</trkpt>
<trkpt lat="46.418030000" lon="-72.560020000">
<ele>0</ele>
<time>2026-09-04T06:49:12Z</time>
</trkpt>
<trkpt lat="46.417570000" lon="-72.560650000">
<ele>0</ele>
<time>2026-09-04T06:49:13Z</time>
</trkpt>
<trkpt lat="46.417030000" lon="-72.561390000">
<ele>0</ele>
<time>2026-09-04T06:49:14Z</time>
</trkpt>
<trkpt lat="46.414320000" lon="-72.565320000">
<ele>0</ele>
<time>2026-09-04T06:49:15Z</time>
</trkpt>
<trkpt lat="46.413580000" lon="-72.566350000">
<ele>0</ele>
<time>2026-09-04T06:49:16Z</time>
</trkpt>
<trkpt lat="46.413580000" lon="-72.566350000">
<ele>0</ele>
<time>2026-09-04T06:49:17Z</time>
</trkpt>
<trkpt lat="46.412430000" lon="-72.567980000">
<ele>0</ele>
<time>2026-09-04T06:49:18Z</time>
</trkpt>
<trkpt lat="46.411130000" lon="-72.569870000">
<ele>0</ele>
<time>2026-09-04T06:49:19Z</time>
</trkpt>
<trkpt lat="46.410260000" lon="-72.571050000">
<ele>0</ele>
<time>2026-09-04T06:49:20Z</time>
</trkpt>
<trkpt lat="46.410100000" lon="-72.571260000">
<ele>0</ele>
<time>2026-09-04T06:49:21Z</time>
</trkpt>
<trkpt lat="46.409960000" lon="-72.571410000">
<ele>0</ele>
<time>2026-09-04T06:49:22Z</time>
</trkpt>
<trkpt lat="46.409710000" lon="-72.571630000">
<ele>0</ele>
<time>2026-09-04T06:49:23Z</time>
</trkpt>
<trkpt lat="46.405950000" lon="-72.574750000">
<ele>0</ele>
<time>2026-09-04T06:49:24Z</time>
</trkpt>
<trkpt lat="46.405760000" lon="-72.574940000">
<ele>0</ele>
<time>2026-09-04T06:49:25Z</time>
</trkpt>
<trkpt lat="46.405540000" lon="-72.575290000">
<ele>0</ele>
<time>2026-09-04T06:49:26Z</time>
</trkpt>
<trkpt lat="46.405370000" lon="-72.575720000">
<ele>0</ele>
<time>2026-09-04T06:49:27Z</time>
</trkpt>
<trkpt lat="46.404940000" lon="-72.576750000">
<ele>0</ele>
<time>2026-09-04T06:49:28Z</time>
</trkpt>
<trkpt lat="46.404800000" lon="-72.576940000">
<ele>0</ele>
<time>2026-09-04T06:49:29Z</time>
</trkpt>
<trkpt lat="46.404700000" lon="-72.577010000">
<ele>0</ele>
<time>2026-09-04T06:49:30Z</time>
</trkpt>
<trkpt lat="46.404600000" lon="-72.577040000">
<ele>0</ele>
<time>2026-09-04T06:49:31Z</time>
</trkpt>
<trkpt lat="46.404470000" lon="-72.577030000">
<ele>0</ele>
<time>2026-09-04T06:49:32Z</time>
</trkpt>
<trkpt lat="46.404290000" lon="-72.576970000">
<ele>0</ele>
<time>2026-09-04T06:49:33Z</time>
</trkpt>
<trkpt lat="46.404270000" lon="-72.576960000">
<ele>0</ele>
<time>2026-09-04T06:49:34Z</time>
</trkpt>
<trkpt lat="46.403390000" lon="-72.576450000">
<ele>0</ele>
<time>2026-09-04T06:49:35Z</time>
</trkpt>
<trkpt lat="46.403180000" lon="-72.576390000">
<ele>0</ele>
<time>2026-09-04T06:49:36Z</time>
</trkpt>
<trkpt lat="46.402890000" lon="-72.576350000">
<ele>0</ele>
<time>2026-09-04T06:49:37Z</time>
</trkpt>
<trkpt lat="46.402250000" lon="-72.576380000">
<ele>0</ele>
<time>2026-09-04T06:49:38Z</time>
</trkpt>
<trkpt lat="46.401670000" lon="-72.576520000">
<ele>0</ele>
<time>2026-09-04T06:49:39Z</time>
</trkpt>
<trkpt lat="46.401460000" lon="-72.576590000">
<ele>0</ele>
<time>2026-09-04T06:49:40Z</time>
</trkpt>
<trkpt lat="46.401230000" lon="-72.576710000">
<ele>0</ele>
<time>2026-09-04T06:49:41Z</time>
</trkpt>
<trkpt lat="46.400380000" lon="-72.577290000">
<ele>0</ele>
<time>2026-09-04T06:49:42Z</time>
</trkpt>
<trkpt lat="46.399650000" lon="-72.577800000">
<ele>0</ele>
<time>2026-09-04T06:49:43Z</time>
</trkpt>
<trkpt lat="46.399140000" lon="-72.578340000">
<ele>0</ele>
<time>2026-09-04T06:49:44Z</time>
</trkpt>
<trkpt lat="46.398570000" lon="-72.579020000">
<ele>0</ele>
<time>2026-09-04T06:49:45Z</time>
</trkpt>
<trkpt lat="46.398160000" lon="-72.579490000">
<ele>0</ele>
<time>2026-09-04T06:49:46Z</time>
</trkpt>
<trkpt lat="46.398010000" lon="-72.579610000">
<ele>0</ele>
<time>2026-09-04T06:49:47Z</time>
</trkpt>
<trkpt lat="46.397840000" lon="-72.579650000">
<ele>0</ele>
<time>2026-09-04T06:49:48Z</time>
</trkpt>
<trkpt lat="46.397640000" lon="-72.579660000">
<ele>0</ele>
<time>2026-09-04T06:49:49Z</time>
</trkpt>
<trkpt lat="46.397440000" lon="-72.579630000">
<ele>0</ele>
<time>2026-09-04T06:49:50Z</time>
</trkpt>
<trkpt lat="46.397210000" lon="-72.579550000">
<ele>0</ele>
<time>2026-09-04T06:49:51Z</time>
</trkpt>
<trkpt lat="46.396790000" lon="-72.579350000">
<ele>0</ele>
<time>2026-09-04T06:49:52Z</time>
</trkpt>
<trkpt lat="46.396360000" lon="-72.579140000">
<ele>0</ele>
<time>2026-09-04T06:49:53Z</time>
</trkpt>
<trkpt lat="46.396290000" lon="-72.579130000">
<ele>0</ele>
<time>2026-09-04T06:49:54Z</time>
</trkpt>
<trkpt lat="46.396200000" lon="-72.579140000">
<ele>0</ele>
<time>2026-09-04T06:49:55Z</time>
</trkpt>
<trkpt lat="46.396170000" lon="-72.579150000">
<ele>0</ele>
<time>2026-09-04T06:49:56Z</time>
</trkpt>
<trkpt lat="46.396150000" lon="-72.579180000">
<ele>0</ele>
<time>2026-09-04T06:49:57Z</time>
</trkpt>
<trkpt lat="46.396120000" lon="-72.579190000">
<ele>0</ele>
<time>2026-09-04T06:49:58Z</time>
</trkpt>
<trkpt lat="46.396060000" lon="-72.579190000">
<ele>0</ele>
<time>2026-09-04T06:49:59Z</time>
</trkpt>
<trkpt lat="46.396010000" lon="-72.579150000">
<ele>0</ele>
<time>2026-09-04T06:50:00Z</time>
</trkpt>
<trkpt lat="46.395970000" lon="-72.579080000">
<ele>0</ele>
<time>2026-09-04T06:50:01Z</time>
</trkpt>
<trkpt lat="46.395960000" lon="-72.579030000">
<ele>0</ele>
<time>2026-09-04T06:50:02Z</time>
</trkpt>
<trkpt lat="46.395790000" lon="-72.578930000">
<ele>0</ele>
<time>2026-09-04T06:50:03Z</time>
</trkpt>
<trkpt lat="46.395750000" lon="-72.578880000">
<ele>0</ele>
<time>2026-09-04T06:50:04Z</time>
</trkpt>
<trkpt lat="46.395600000" lon="-72.578840000">
<ele>0</ele>
<time>2026-09-04T06:50:05Z</time>
</trkpt>
<trkpt lat="46.395360000" lon="-72.578810000">
<ele>0</ele>
<time>2026-09-04T06:50:06Z</time>
</trkpt>
<trkpt lat="46.394430000" lon="-72.579040000">
<ele>0</ele>
<time>2026-09-04T06:50:07Z</time>
</trkpt>
<trkpt lat="46.393610000" lon="-72.579270000">
<ele>0</ele>
<time>2026-09-04T06:50:08Z</time>
</trkpt>
<trkpt lat="46.392390000" lon="-72.579690000">
<ele>0</ele>
<time>2026-09-04T06:50:09Z</time>
</trkpt>
<trkpt lat="46.392040000" lon="-72.579860000">
<ele>0</ele>
<time>2026-09-04T06:50:10Z</time>
</trkpt>
<trkpt lat="46.391110000" lon="-72.580360000">
<ele>0</ele>
<time>2026-09-04T06:50:11Z</time>
</trkpt>
<trkpt lat="46.390550000" lon="-72.580730000">
<ele>0</ele>
<time>2026-09-04T06:50:12Z</time>
</trkpt>
<trkpt lat="46.390530000" lon="-72.580740000">
<ele>0</ele>
<time>2026-09-04T06:50:13Z</time>
</trkpt>
<trkpt lat="46.390280000" lon="-72.580940000">
<ele>0</ele>
<time>2026-09-04T06:50:14Z</time>
</trkpt>
<trkpt lat="46.390150000" lon="-72.581070000">
<ele>0</ele>
<time>2026-09-04T06:50:15Z</time>
</trkpt>
<trkpt lat="46.389460000" lon="-72.580060000">
<ele>0</ele>
<time>2026-09-04T06:50:16Z</time>
</trkpt>
</trkseg>
</trk>
</gpx>
